<?xml version="1.0" encoding="utf-8"?>
<gpx xmlns:xsi="http://www.w3.org/2001/XMLSchema-instance" xmlns:xsd="http://www.w3.org/2001/XMLSchema" version="1.1" creator="Shapelink.com" xmlns="http://www.topografix.com/GPX/1/1" xmlns:gpxtpx="http://www.garmin.com/xmlschemas/TrackPointExtension/v1">
  <metadata>
    <name>Längdskidåkning - Klassisk 16.77 km, 2014-12-20</name>
    <desc></desc>
    <author><name>Alexander Engvall</name></author> 
    <time>2014-12-20T14:13:06Z</time>
  </metadata>
  <trk>
    <name>Längdskidåkning - Klassisk 16.77 km, 2014-12-20</name>
    <trkseg>
      <trkpt lat="61.2104541" lon="14.5301669">
        <ele>468.299</ele>
        <time>2014-12-20T14:13:06Z</time>
      </trkpt>
      <trkpt lat="61.2104816" lon="14.5300654">
        <ele>467.819</ele>
        <time>2014-12-20T14:13:11Z</time>
      </trkpt>
      <trkpt lat="61.2105023" lon="14.5300322">
        <ele>467.338</ele>
        <time>2014-12-20T14:13:13Z</time>
      </trkpt>
      <trkpt lat="61.2105942" lon="14.5299021">
        <ele>467.338</ele>
        <time>2014-12-20T14:13:18Z</time>
      </trkpt>
      <trkpt lat="61.2106866" lon="14.5297795">
        <ele>466.857</ele>
        <time>2014-12-20T14:13:22Z</time>
      </trkpt>
      <trkpt lat="61.21079" lon="14.5296198">
        <ele>466.857</ele>
        <time>2014-12-20T14:13:26Z</time>
      </trkpt>
      <trkpt lat="61.2109377" lon="14.5294609">
        <ele>466.377</ele>
        <time>2014-12-20T14:13:31Z</time>
      </trkpt>
      <trkpt lat="61.2111039" lon="14.5292985">
        <ele>465.896</ele>
        <time>2014-12-20T14:13:36Z</time>
      </trkpt>
      <trkpt lat="61.211245" lon="14.5291734">
        <ele>465.416</ele>
        <time>2014-12-20T14:13:40Z</time>
      </trkpt>
      <trkpt lat="61.2114194" lon="14.5289961">
        <ele>463.493</ele>
        <time>2014-12-20T14:13:44Z</time>
      </trkpt>
      <trkpt lat="61.2115228" lon="14.5288849">
        <ele>463.012</ele>
        <time>2014-12-20T14:13:46Z</time>
      </trkpt>
      <trkpt lat="61.2116256" lon="14.5287492">
        <ele>462.051</ele>
        <time>2014-12-20T14:13:48Z</time>
      </trkpt>
      <trkpt lat="61.2119438" lon="14.5283946">
        <ele>461.57</ele>
        <time>2014-12-20T14:13:54Z</time>
      </trkpt>
      <trkpt lat="61.2119813" lon="14.5283483">
        <ele>461.57</ele>
        <time>2014-12-20T14:13:55Z</time>
      </trkpt>
      <trkpt lat="61.2120501" lon="14.5282891">
        <ele>461.089</ele>
        <time>2014-12-20T14:13:57Z</time>
      </trkpt>
      <trkpt lat="61.2121164" lon="14.5282447">
        <ele>461.089</ele>
        <time>2014-12-20T14:13:59Z</time>
      </trkpt>
      <trkpt lat="61.2122257" lon="14.5281317">
        <ele>460.609</ele>
        <time>2014-12-20T14:14:03Z</time>
      </trkpt>
      <trkpt lat="61.2123814" lon="14.5279647">
        <ele>460.609</ele>
        <time>2014-12-20T14:14:08Z</time>
      </trkpt>
      <trkpt lat="61.2125184" lon="14.5278306">
        <ele>461.089</ele>
        <time>2014-12-20T14:14:12Z</time>
      </trkpt>
      <trkpt lat="61.2126717" lon="14.5276691">
        <ele>461.089</ele>
        <time>2014-12-20T14:14:16Z</time>
      </trkpt>
      <trkpt lat="61.2127841" lon="14.5275544">
        <ele>460.609</ele>
        <time>2014-12-20T14:14:19Z</time>
      </trkpt>
      <trkpt lat="61.2129581" lon="14.5273759">
        <ele>460.128</ele>
        <time>2014-12-20T14:14:23Z</time>
      </trkpt>
      <trkpt lat="61.2132731" lon="14.5270338">
        <ele>457.244</ele>
        <time>2014-12-20T14:14:29Z</time>
      </trkpt>
      <trkpt lat="61.2133316" lon="14.5269693">
        <ele>456.764</ele>
        <time>2014-12-20T14:14:30Z</time>
      </trkpt>
      <trkpt lat="61.2136186" lon="14.5267304">
        <ele>454.841</ele>
        <time>2014-12-20T14:14:35Z</time>
      </trkpt>
      <trkpt lat="61.2136681" lon="14.52669">
        <ele>454.841</ele>
        <time>2014-12-20T14:14:36Z</time>
      </trkpt>
      <trkpt lat="61.2137336" lon="14.5266101">
        <ele>454.36</ele>
        <time>2014-12-20T14:14:38Z</time>
      </trkpt>
      <trkpt lat="61.2139009" lon="14.5264353">
        <ele>455.802</ele>
        <time>2014-12-20T14:14:44Z</time>
      </trkpt>
      <trkpt lat="61.2140545" lon="14.5262921">
        <ele>457.725</ele>
        <time>2014-12-20T14:14:49Z</time>
      </trkpt>
      <trkpt lat="61.2142003" lon="14.5261606">
        <ele>459.167</ele>
        <time>2014-12-20T14:14:53Z</time>
      </trkpt>
      <trkpt lat="61.2143374" lon="14.526052">
        <ele>461.089</ele>
        <time>2014-12-20T14:14:57Z</time>
      </trkpt>
      <trkpt lat="61.2144722" lon="14.5259311">
        <ele>462.051</ele>
        <time>2014-12-20T14:15:01Z</time>
      </trkpt>
      <trkpt lat="61.2146292" lon="14.5258265">
        <ele>463.493</ele>
        <time>2014-12-20T14:15:06Z</time>
      </trkpt>
      <trkpt lat="61.2147549" lon="14.5257466">
        <ele>463.012</ele>
        <time>2014-12-20T14:15:10Z</time>
      </trkpt>
      <trkpt lat="61.2149468" lon="14.5256089">
        <ele>462.051</ele>
        <time>2014-12-20T14:15:15Z</time>
      </trkpt>
      <trkpt lat="61.2151963" lon="14.5254696">
        <ele>461.57</ele>
        <time>2014-12-20T14:15:20Z</time>
      </trkpt>
      <trkpt lat="61.2152881" lon="14.5254129">
        <ele>462.051</ele>
        <time>2014-12-20T14:15:22Z</time>
      </trkpt>
      <trkpt lat="61.2153936" lon="14.5253567">
        <ele>461.57</ele>
        <time>2014-12-20T14:15:24Z</time>
      </trkpt>
      <trkpt lat="61.2156233" lon="14.525236">
        <ele>459.648</ele>
        <time>2014-12-20T14:15:28Z</time>
      </trkpt>
      <trkpt lat="61.2159734" lon="14.5250423">
        <ele>457.244</ele>
        <time>2014-12-20T14:15:34Z</time>
      </trkpt>
      <trkpt lat="61.2160703" lon="14.5249837">
        <ele>455.322</ele>
        <time>2014-12-20T14:15:36Z</time>
      </trkpt>
      <trkpt lat="61.216161" lon="14.5248942">
        <ele>454.841</ele>
        <time>2014-12-20T14:15:39Z</time>
      </trkpt>
      <trkpt lat="61.2162484" lon="14.5247901">
        <ele>456.283</ele>
        <time>2014-12-20T14:15:43Z</time>
      </trkpt>
      <trkpt lat="61.2163757" lon="14.5246712">
        <ele>458.686</ele>
        <time>2014-12-20T14:15:48Z</time>
      </trkpt>
      <trkpt lat="61.2164972" lon="14.5245392">
        <ele>460.128</ele>
        <time>2014-12-20T14:15:53Z</time>
      </trkpt>
      <trkpt lat="61.2166097" lon="14.5244522">
        <ele>461.089</ele>
        <time>2014-12-20T14:15:57Z</time>
      </trkpt>
      <trkpt lat="61.2167327" lon="14.5243278">
        <ele>462.531</ele>
        <time>2014-12-20T14:16:02Z</time>
      </trkpt>
      <trkpt lat="61.21688" lon="14.5241083">
        <ele>464.454</ele>
        <time>2014-12-20T14:16:08Z</time>
      </trkpt>
      <trkpt lat="61.2170466" lon="14.5237776">
        <ele>465.896</ele>
        <time>2014-12-20T14:16:14Z</time>
      </trkpt>
      <trkpt lat="61.217199" lon="14.5234876">
        <ele>465.416</ele>
        <time>2014-12-20T14:16:19Z</time>
      </trkpt>
      <trkpt lat="61.2173079" lon="14.523294">
        <ele>466.857</ele>
        <time>2014-12-20T14:16:23Z</time>
      </trkpt>
      <trkpt lat="61.2173984" lon="14.5231002">
        <ele>466.857</ele>
        <time>2014-12-20T14:16:27Z</time>
      </trkpt>
      <trkpt lat="61.2175006" lon="14.5228796">
        <ele>468.78</ele>
        <time>2014-12-20T14:16:32Z</time>
      </trkpt>
      <trkpt lat="61.2175552" lon="14.5227208">
        <ele>470.222</ele>
        <time>2014-12-20T14:16:35Z</time>
      </trkpt>
      <trkpt lat="61.2176906" lon="14.5225382">
        <ele>471.183</ele>
        <time>2014-12-20T14:16:40Z</time>
      </trkpt>
      <trkpt lat="61.2177966" lon="14.5223491">
        <ele>471.183</ele>
        <time>2014-12-20T14:16:44Z</time>
      </trkpt>
      <trkpt lat="61.2179218" lon="14.5220942">
        <ele>470.222</ele>
        <time>2014-12-20T14:16:48Z</time>
      </trkpt>
      <trkpt lat="61.2180992" lon="14.521797">
        <ele>468.78</ele>
        <time>2014-12-20T14:16:52Z</time>
      </trkpt>
      <trkpt lat="61.2182543" lon="14.5215217">
        <ele>466.857</ele>
        <time>2014-12-20T14:16:55Z</time>
      </trkpt>
      <trkpt lat="61.2185807" lon="14.5209438">
        <ele>464.935</ele>
        <time>2014-12-20T14:17:01Z</time>
      </trkpt>
      <trkpt lat="61.218778" lon="14.5205864">
        <ele>464.454</ele>
        <time>2014-12-20T14:17:05Z</time>
      </trkpt>
      <trkpt lat="61.2188867" lon="14.5203786">
        <ele>464.454</ele>
        <time>2014-12-20T14:17:08Z</time>
      </trkpt>
      <trkpt lat="61.2190086" lon="14.5201175">
        <ele>464.935</ele>
        <time>2014-12-20T14:17:13Z</time>
      </trkpt>
      <trkpt lat="61.2191272" lon="14.5198884">
        <ele>465.416</ele>
        <time>2014-12-20T14:17:19Z</time>
      </trkpt>
      <trkpt lat="61.2192334" lon="14.5196553">
        <ele>466.857</ele>
        <time>2014-12-20T14:17:25Z</time>
      </trkpt>
      <trkpt lat="61.2193436" lon="14.5193598">
        <ele>467.819</ele>
        <time>2014-12-20T14:17:31Z</time>
      </trkpt>
      <trkpt lat="61.2194144" lon="14.5191478">
        <ele>467.819</ele>
        <time>2014-12-20T14:17:35Z</time>
      </trkpt>
      <trkpt lat="61.2195145" lon="14.518849">
        <ele>467.819</ele>
        <time>2014-12-20T14:17:40Z</time>
      </trkpt>
      <trkpt lat="61.2195969" lon="14.5186096">
        <ele>466.857</ele>
        <time>2014-12-20T14:17:44Z</time>
      </trkpt>
      <trkpt lat="61.2197096" lon="14.5182842">
        <ele>465.416</ele>
        <time>2014-12-20T14:17:49Z</time>
      </trkpt>
      <trkpt lat="61.2197894" lon="14.5179942">
        <ele>465.416</ele>
        <time>2014-12-20T14:17:53Z</time>
      </trkpt>
      <trkpt lat="61.2199045" lon="14.5176347">
        <ele>464.454</ele>
        <time>2014-12-20T14:17:58Z</time>
      </trkpt>
      <trkpt lat="61.2199933" lon="14.5173933">
        <ele>463.493</ele>
        <time>2014-12-20T14:18:01Z</time>
      </trkpt>
      <trkpt lat="61.2200388" lon="14.5172311">
        <ele>462.531</ele>
        <time>2014-12-20T14:18:03Z</time>
      </trkpt>
      <trkpt lat="61.2201464" lon="14.5169204">
        <ele>462.051</ele>
        <time>2014-12-20T14:18:07Z</time>
      </trkpt>
      <trkpt lat="61.2202023" lon="14.5167803">
        <ele>462.051</ele>
        <time>2014-12-20T14:18:09Z</time>
      </trkpt>
      <trkpt lat="61.2202906" lon="14.5165055">
        <ele>462.531</ele>
        <time>2014-12-20T14:18:13Z</time>
      </trkpt>
      <trkpt lat="61.2203688" lon="14.5163089">
        <ele>463.012</ele>
        <time>2014-12-20T14:18:16Z</time>
      </trkpt>
      <trkpt lat="61.2205506" lon="14.5159139">
        <ele>462.051</ele>
        <time>2014-12-20T14:18:22Z</time>
      </trkpt>
      <trkpt lat="61.220627" lon="14.5158077">
        <ele>462.051</ele>
        <time>2014-12-20T14:18:24Z</time>
      </trkpt>
      <trkpt lat="61.2207004" lon="14.5157202">
        <ele>462.531</ele>
        <time>2014-12-20T14:18:26Z</time>
      </trkpt>
      <trkpt lat="61.2207806" lon="14.5156428">
        <ele>462.531</ele>
        <time>2014-12-20T14:18:28Z</time>
      </trkpt>
      <trkpt lat="61.2209778" lon="14.5155008">
        <ele>462.051</ele>
        <time>2014-12-20T14:18:33Z</time>
      </trkpt>
      <trkpt lat="61.2210155" lon="14.5154823">
        <ele>462.051</ele>
        <time>2014-12-20T14:18:34Z</time>
      </trkpt>
      <trkpt lat="61.2212089" lon="14.5153762">
        <ele>462.051</ele>
        <time>2014-12-20T14:18:39Z</time>
      </trkpt>
      <trkpt lat="61.2214057" lon="14.5153265">
        <ele>462.051</ele>
        <time>2014-12-20T14:18:43Z</time>
      </trkpt>
      <trkpt lat="61.2215771" lon="14.5152627">
        <ele>462.051</ele>
        <time>2014-12-20T14:18:47Z</time>
      </trkpt>
      <trkpt lat="61.2217384" lon="14.5152264">
        <ele>461.57</ele>
        <time>2014-12-20T14:18:51Z</time>
      </trkpt>
      <trkpt lat="61.2218369" lon="14.5152176">
        <ele>461.57</ele>
        <time>2014-12-20T14:18:53Z</time>
      </trkpt>
      <trkpt lat="61.2219798" lon="14.515199">
        <ele>460.609</ele>
        <time>2014-12-20T14:18:56Z</time>
      </trkpt>
      <trkpt lat="61.2222194" lon="14.5151265">
        <ele>459.167</ele>
        <time>2014-12-20T14:19:01Z</time>
      </trkpt>
      <trkpt lat="61.2225268" lon="14.5149793">
        <ele>456.764</ele>
        <time>2014-12-20T14:19:07Z</time>
      </trkpt>
      <trkpt lat="61.2227101" lon="14.5147825">
        <ele>456.283</ele>
        <time>2014-12-20T14:19:12Z</time>
      </trkpt>
      <trkpt lat="61.222839" lon="14.5146373">
        <ele>456.283</ele>
        <time>2014-12-20T14:19:16Z</time>
      </trkpt>
      <trkpt lat="61.2229956" lon="14.5144265">
        <ele>455.322</ele>
        <time>2014-12-20T14:19:21Z</time>
      </trkpt>
      <trkpt lat="61.223181" lon="14.514196">
        <ele>453.399</ele>
        <time>2014-12-20T14:19:26Z</time>
      </trkpt>
      <trkpt lat="61.2233516" lon="14.5139639">
        <ele>452.438</ele>
        <time>2014-12-20T14:19:30Z</time>
      </trkpt>
      <trkpt lat="61.223492" lon="14.5137249">
        <ele>452.438</ele>
        <time>2014-12-20T14:19:34Z</time>
      </trkpt>
      <trkpt lat="61.2236233" lon="14.5134916">
        <ele>451.957</ele>
        <time>2014-12-20T14:19:38Z</time>
      </trkpt>
      <trkpt lat="61.2236867" lon="14.5133622">
        <ele>451.476</ele>
        <time>2014-12-20T14:19:40Z</time>
      </trkpt>
      <trkpt lat="61.2238664" lon="14.5132131">
        <ele>450.996</ele>
        <time>2014-12-20T14:19:45Z</time>
      </trkpt>
      <trkpt lat="61.224006" lon="14.51312">
        <ele>451.476</ele>
        <time>2014-12-20T14:19:49Z</time>
      </trkpt>
      <trkpt lat="61.2240787" lon="14.51303">
        <ele>452.438</ele>
        <time>2014-12-20T14:19:51Z</time>
      </trkpt>
      <trkpt lat="61.2242296" lon="14.5128481">
        <ele>452.438</ele>
        <time>2014-12-20T14:19:55Z</time>
      </trkpt>
      <trkpt lat="61.2243429" lon="14.5127259">
        <ele>452.438</ele>
        <time>2014-12-20T14:19:58Z</time>
      </trkpt>
      <trkpt lat="61.2245444" lon="14.5124966">
        <ele>452.918</ele>
        <time>2014-12-20T14:20:03Z</time>
      </trkpt>
      <trkpt lat="61.2246501" lon="14.5123513">
        <ele>453.399</ele>
        <time>2014-12-20T14:20:06Z</time>
      </trkpt>
      <trkpt lat="61.2247594" lon="14.5122183">
        <ele>454.36</ele>
        <time>2014-12-20T14:20:09Z</time>
      </trkpt>
      <trkpt lat="61.2249038" lon="14.512048">
        <ele>454.841</ele>
        <time>2014-12-20T14:20:13Z</time>
      </trkpt>
      <trkpt lat="61.2250711" lon="14.51181">
        <ele>454.36</ele>
        <time>2014-12-20T14:20:18Z</time>
      </trkpt>
      <trkpt lat="61.2252019" lon="14.5115838">
        <ele>453.88</ele>
        <time>2014-12-20T14:20:22Z</time>
      </trkpt>
      <trkpt lat="61.2252283" lon="14.5115315">
        <ele>453.88</ele>
        <time>2014-12-20T14:20:23Z</time>
      </trkpt>
      <trkpt lat="61.2253355" lon="14.5113046">
        <ele>453.399</ele>
        <time>2014-12-20T14:20:27Z</time>
      </trkpt>
      <trkpt lat="61.2254186" lon="14.5111424">
        <ele>452.438</ele>
        <time>2014-12-20T14:20:30Z</time>
      </trkpt>
      <trkpt lat="61.2255303" lon="14.5109089">
        <ele>452.918</ele>
        <time>2014-12-20T14:20:34Z</time>
      </trkpt>
      <trkpt lat="61.2256205" lon="14.5106567">
        <ele>452.438</ele>
        <time>2014-12-20T14:20:38Z</time>
      </trkpt>
      <trkpt lat="61.2257411" lon="14.5103311">
        <ele>451.476</ele>
        <time>2014-12-20T14:20:43Z</time>
      </trkpt>
      <trkpt lat="61.2258523" lon="14.5100593">
        <ele>450.996</ele>
        <time>2014-12-20T14:20:47Z</time>
      </trkpt>
      <trkpt lat="61.2259042" lon="14.5099297">
        <ele>450.996</ele>
        <time>2014-12-20T14:20:49Z</time>
      </trkpt>
      <trkpt lat="61.2260032" lon="14.5096718">
        <ele>450.996</ele>
        <time>2014-12-20T14:20:53Z</time>
      </trkpt>
      <trkpt lat="61.2260558" lon="14.50953">
        <ele>450.515</ele>
        <time>2014-12-20T14:20:55Z</time>
      </trkpt>
      <trkpt lat="61.2261965" lon="14.5091084">
        <ele>452.918</ele>
        <time>2014-12-20T14:21:01Z</time>
      </trkpt>
      <trkpt lat="61.2262399" lon="14.5089725">
        <ele>454.36</ele>
        <time>2014-12-20T14:21:03Z</time>
      </trkpt>
      <trkpt lat="61.2263425" lon="14.5086456">
        <ele>457.244</ele>
        <time>2014-12-20T14:21:08Z</time>
      </trkpt>
      <trkpt lat="61.2264538" lon="14.5082966">
        <ele>459.648</ele>
        <time>2014-12-20T14:21:13Z</time>
      </trkpt>
      <trkpt lat="61.2265624" lon="14.5079586">
        <ele>463.012</ele>
        <time>2014-12-20T14:21:18Z</time>
      </trkpt>
      <trkpt lat="61.22666" lon="14.5077234">
        <ele>464.454</ele>
        <time>2014-12-20T14:21:22Z</time>
      </trkpt>
      <trkpt lat="61.2267539" lon="14.5075071">
        <ele>464.935</ele>
        <time>2014-12-20T14:21:26Z</time>
      </trkpt>
      <trkpt lat="61.2268594" lon="14.5071884">
        <ele>465.896</ele>
        <time>2014-12-20T14:21:31Z</time>
      </trkpt>
      <trkpt lat="61.2270004" lon="14.5068259">
        <ele>464.935</ele>
        <time>2014-12-20T14:21:36Z</time>
      </trkpt>
      <trkpt lat="61.2270278" lon="14.5067521">
        <ele>464.935</ele>
        <time>2014-12-20T14:21:37Z</time>
      </trkpt>
      <trkpt lat="61.2271472" lon="14.5064882">
        <ele>463.493</ele>
        <time>2014-12-20T14:21:41Z</time>
      </trkpt>
      <trkpt lat="61.227271" lon="14.5062815">
        <ele>462.051</ele>
        <time>2014-12-20T14:21:45Z</time>
      </trkpt>
      <trkpt lat="61.2273878" lon="14.5061374">
        <ele>459.648</ele>
        <time>2014-12-20T14:21:49Z</time>
      </trkpt>
      <trkpt lat="61.2275592" lon="14.5060071">
        <ele>458.206</ele>
        <time>2014-12-20T14:21:54Z</time>
      </trkpt>
      <trkpt lat="61.2277638" lon="14.5058951">
        <ele>457.244</ele>
        <time>2014-12-20T14:21:59Z</time>
      </trkpt>
      <trkpt lat="61.2279235" lon="14.505799">
        <ele>457.244</ele>
        <time>2014-12-20T14:22:03Z</time>
      </trkpt>
      <trkpt lat="61.228099" lon="14.5056764">
        <ele>457.244</ele>
        <time>2014-12-20T14:22:08Z</time>
      </trkpt>
      <trkpt lat="61.2282532" lon="14.5056032">
        <ele>455.802</ele>
        <time>2014-12-20T14:22:12Z</time>
      </trkpt>
      <trkpt lat="61.2284636" lon="14.5055198">
        <ele>454.36</ele>
        <time>2014-12-20T14:22:17Z</time>
      </trkpt>
      <trkpt lat="61.2286142" lon="14.5054224">
        <ele>452.438</ele>
        <time>2014-12-20T14:22:21Z</time>
      </trkpt>
      <trkpt lat="61.228728" lon="14.5053367">
        <ele>451.476</ele>
        <time>2014-12-20T14:22:24Z</time>
      </trkpt>
      <trkpt lat="61.2290118" lon="14.5052046">
        <ele>448.592</ele>
        <time>2014-12-20T14:22:31Z</time>
      </trkpt>
      <trkpt lat="61.2290476" lon="14.5051936">
        <ele>448.592</ele>
        <time>2014-12-20T14:22:32Z</time>
      </trkpt>
      <trkpt lat="61.2292282" lon="14.505117">
        <ele>448.112</ele>
        <time>2014-12-20T14:22:37Z</time>
      </trkpt>
      <trkpt lat="61.2292982" lon="14.5050795">
        <ele>448.112</ele>
        <time>2014-12-20T14:22:39Z</time>
      </trkpt>
      <trkpt lat="61.2294716" lon="14.5050036">
        <ele>449.073</ele>
        <time>2014-12-20T14:22:44Z</time>
      </trkpt>
      <trkpt lat="61.2296474" lon="14.5048994">
        <ele>449.554</ele>
        <time>2014-12-20T14:22:49Z</time>
      </trkpt>
      <trkpt lat="61.229823" lon="14.5048299">
        <ele>450.034</ele>
        <time>2014-12-20T14:22:53Z</time>
      </trkpt>
      <trkpt lat="61.2299088" lon="14.5047856">
        <ele>450.515</ele>
        <time>2014-12-20T14:22:55Z</time>
      </trkpt>
      <trkpt lat="61.2301092" lon="14.5046423">
        <ele>451.957</ele>
        <time>2014-12-20T14:23:00Z</time>
      </trkpt>
      <trkpt lat="61.2302877" lon="14.5045652">
        <ele>452.438</ele>
        <time>2014-12-20T14:23:04Z</time>
      </trkpt>
      <trkpt lat="61.2304129" lon="14.5046456">
        <ele>451.957</ele>
        <time>2014-12-20T14:23:07Z</time>
      </trkpt>
      <trkpt lat="61.2305376" lon="14.5049046">
        <ele>452.918</ele>
        <time>2014-12-20T14:23:11Z</time>
      </trkpt>
      <trkpt lat="61.2305671" lon="14.5050378">
        <ele>454.36</ele>
        <time>2014-12-20T14:23:13Z</time>
      </trkpt>
      <trkpt lat="61.2306102" lon="14.5052336">
        <ele>456.764</ele>
        <time>2014-12-20T14:23:16Z</time>
      </trkpt>
      <trkpt lat="61.2306844" lon="14.5055657">
        <ele>459.648</ele>
        <time>2014-12-20T14:23:21Z</time>
      </trkpt>
      <trkpt lat="61.2307586" lon="14.5058805">
        <ele>461.57</ele>
        <time>2014-12-20T14:23:25Z</time>
      </trkpt>
      <trkpt lat="61.2308382" lon="14.5062281">
        <ele>463.493</ele>
        <time>2014-12-20T14:23:29Z</time>
      </trkpt>
      <trkpt lat="61.2309121" lon="14.5065973">
        <ele>463.973</ele>
        <time>2014-12-20T14:23:33Z</time>
      </trkpt>
      <trkpt lat="61.2310083" lon="14.5070063">
        <ele>464.935</ele>
        <time>2014-12-20T14:23:38Z</time>
      </trkpt>
      <trkpt lat="61.2310584" lon="14.5072619">
        <ele>464.935</ele>
        <time>2014-12-20T14:23:41Z</time>
      </trkpt>
      <trkpt lat="61.2310999" lon="14.5075316">
        <ele>464.935</ele>
        <time>2014-12-20T14:23:44Z</time>
      </trkpt>
      <trkpt lat="61.2311449" lon="14.507784">
        <ele>463.973</ele>
        <time>2014-12-20T14:23:47Z</time>
      </trkpt>
      <trkpt lat="61.231226" lon="14.5080874">
        <ele>463.012</ele>
        <time>2014-12-20T14:23:51Z</time>
      </trkpt>
      <trkpt lat="61.2312724" lon="14.5082795">
        <ele>461.57</ele>
        <time>2014-12-20T14:23:54Z</time>
      </trkpt>
      <trkpt lat="61.2313495" lon="14.5085976">
        <ele>460.128</ele>
        <time>2014-12-20T14:23:59Z</time>
      </trkpt>
      <trkpt lat="61.2314377" lon="14.5089632">
        <ele>457.244</ele>
        <time>2014-12-20T14:24:04Z</time>
      </trkpt>
      <trkpt lat="61.2315475" lon="14.5094056">
        <ele>455.322</ele>
        <time>2014-12-20T14:24:09Z</time>
      </trkpt>
      <trkpt lat="61.2315688" lon="14.5095102">
        <ele>454.841</ele>
        <time>2014-12-20T14:24:10Z</time>
      </trkpt>
      <trkpt lat="61.2316254" lon="14.5098349">
        <ele>453.88</ele>
        <time>2014-12-20T14:24:13Z</time>
      </trkpt>
      <trkpt lat="61.231642" lon="14.5099526">
        <ele>453.399</ele>
        <time>2014-12-20T14:24:14Z</time>
      </trkpt>
      <trkpt lat="61.2316691" lon="14.5103285">
        <ele>452.918</ele>
        <time>2014-12-20T14:24:17Z</time>
      </trkpt>
      <trkpt lat="61.2316918" lon="14.5109653">
        <ele>450.996</ele>
        <time>2014-12-20T14:24:22Z</time>
      </trkpt>
      <trkpt lat="61.2317071" lon="14.5112269">
        <ele>450.034</ele>
        <time>2014-12-20T14:24:24Z</time>
      </trkpt>
      <trkpt lat="61.231723" lon="14.511728">
        <ele>448.592</ele>
        <time>2014-12-20T14:24:28Z</time>
      </trkpt>
      <trkpt lat="61.2317459" lon="14.5119184">
        <ele>447.631</ele>
        <time>2014-12-20T14:24:30Z</time>
      </trkpt>
      <trkpt lat="61.2317566" lon="14.5123245">
        <ele>447.631</ele>
        <time>2014-12-20T14:24:34Z</time>
      </trkpt>
      <trkpt lat="61.2318002" lon="14.5128426">
        <ele>446.67</ele>
        <time>2014-12-20T14:24:39Z</time>
      </trkpt>
      <trkpt lat="61.2318177" lon="14.5130541">
        <ele>446.189</ele>
        <time>2014-12-20T14:24:41Z</time>
      </trkpt>
      <trkpt lat="61.2318243" lon="14.5132752">
        <ele>445.228</ele>
        <time>2014-12-20T14:24:43Z</time>
      </trkpt>
      <trkpt lat="61.2317938" lon="14.5138315">
        <ele>443.786</ele>
        <time>2014-12-20T14:24:48Z</time>
      </trkpt>
      <trkpt lat="61.2317519" lon="14.5141449">
        <ele>443.305</ele>
        <time>2014-12-20T14:24:51Z</time>
      </trkpt>
      <trkpt lat="61.2317214" lon="14.5145489">
        <ele>442.344</ele>
        <time>2014-12-20T14:24:55Z</time>
      </trkpt>
      <trkpt lat="61.2316851" lon="14.514923">
        <ele>441.382</ele>
        <time>2014-12-20T14:24:59Z</time>
      </trkpt>
      <trkpt lat="61.2316864" lon="14.5150084">
        <ele>441.382</ele>
        <time>2014-12-20T14:25:00Z</time>
      </trkpt>
      <trkpt lat="61.2317733" lon="14.5153638">
        <ele>440.902</ele>
        <time>2014-12-20T14:25:06Z</time>
      </trkpt>
      <trkpt lat="61.2318784" lon="14.5155563">
        <ele>440.902</ele>
        <time>2014-12-20T14:25:09Z</time>
      </trkpt>
      <trkpt lat="61.2320623" lon="14.516276">
        <ele>439.46</ele>
        <time>2014-12-20T14:25:15Z</time>
      </trkpt>
      <trkpt lat="61.2322468" lon="14.5172804">
        <ele>437.537</ele>
        <time>2014-12-20T14:25:21Z</time>
      </trkpt>
      <trkpt lat="61.2323098" lon="14.5176275">
        <ele>437.057</ele>
        <time>2014-12-20T14:25:23Z</time>
      </trkpt>
      <trkpt lat="61.2324679" lon="14.5180957">
        <ele>435.134</ele>
        <time>2014-12-20T14:25:26Z</time>
      </trkpt>
      <trkpt lat="61.2327464" lon="14.5185468">
        <ele>434.653</ele>
        <time>2014-12-20T14:25:30Z</time>
      </trkpt>
      <trkpt lat="61.2330046" lon="14.5188986">
        <ele>434.653</ele>
        <time>2014-12-20T14:25:34Z</time>
      </trkpt>
      <trkpt lat="61.2332738" lon="14.5190777">
        <ele>433.211</ele>
        <time>2014-12-20T14:25:38Z</time>
      </trkpt>
      <trkpt lat="61.2334916" lon="14.5189587">
        <ele>433.211</ele>
        <time>2014-12-20T14:25:41Z</time>
      </trkpt>
      <trkpt lat="61.2338" lon="14.5188811">
        <ele>431.769</ele>
        <time>2014-12-20T14:25:46Z</time>
      </trkpt>
      <trkpt lat="61.2339759" lon="14.5190033">
        <ele>428.885</ele>
        <time>2014-12-20T14:25:50Z</time>
      </trkpt>
      <trkpt lat="61.2340012" lon="14.5190423">
        <ele>429.366</ele>
        <time>2014-12-20T14:25:51Z</time>
      </trkpt>
      <trkpt lat="61.2341524" lon="14.5193463">
        <ele>429.366</ele>
        <time>2014-12-20T14:25:59Z</time>
      </trkpt>
      <trkpt lat="61.2342148" lon="14.5195317">
        <ele>430.327</ele>
        <time>2014-12-20T14:26:03Z</time>
      </trkpt>
      <trkpt lat="61.2341919" lon="14.5197715">
        <ele>431.289</ele>
        <time>2014-12-20T14:26:07Z</time>
      </trkpt>
      <trkpt lat="61.2341013" lon="14.5201441">
        <ele>431.289</ele>
        <time>2014-12-20T14:26:12Z</time>
      </trkpt>
      <trkpt lat="61.2339969" lon="14.5205939">
        <ele>431.289</ele>
        <time>2014-12-20T14:26:17Z</time>
      </trkpt>
      <trkpt lat="61.233942" lon="14.5209255">
        <ele>429.847</ele>
        <time>2014-12-20T14:26:21Z</time>
      </trkpt>
      <trkpt lat="61.2338634" lon="14.5212761">
        <ele>427.443</ele>
        <time>2014-12-20T14:26:26Z</time>
      </trkpt>
      <trkpt lat="61.2338294" lon="14.5214291">
        <ele>426.963</ele>
        <time>2014-12-20T14:26:28Z</time>
      </trkpt>
      <trkpt lat="61.233754" lon="14.521867">
        <ele>426.963</ele>
        <time>2014-12-20T14:26:33Z</time>
      </trkpt>
      <trkpt lat="61.233606" lon="14.5225014">
        <ele>426.001</ele>
        <time>2014-12-20T14:26:39Z</time>
      </trkpt>
      <trkpt lat="61.2334894" lon="14.5229356">
        <ele>425.521</ele>
        <time>2014-12-20T14:26:43Z</time>
      </trkpt>
      <trkpt lat="61.2333801" lon="14.5234165">
        <ele>425.521</ele>
        <time>2014-12-20T14:26:47Z</time>
      </trkpt>
      <trkpt lat="61.2332533" lon="14.5238335">
        <ele>424.559</ele>
        <time>2014-12-20T14:26:51Z</time>
      </trkpt>
      <trkpt lat="61.2331646" lon="14.5241125">
        <ele>423.117</ele>
        <time>2014-12-20T14:26:54Z</time>
      </trkpt>
      <trkpt lat="61.2331095" lon="14.5242881">
        <ele>422.156</ele>
        <time>2014-12-20T14:26:56Z</time>
      </trkpt>
      <trkpt lat="61.2330792" lon="14.5243833">
        <ele>421.675</ele>
        <time>2014-12-20T14:26:57Z</time>
      </trkpt>
      <trkpt lat="61.2330178" lon="14.5245507">
        <ele>421.195</ele>
        <time>2014-12-20T14:26:59Z</time>
      </trkpt>
      <trkpt lat="61.2329662" lon="14.5247314">
        <ele>421.195</ele>
        <time>2014-12-20T14:27:01Z</time>
      </trkpt>
      <trkpt lat="61.2328526" lon="14.525097">
        <ele>420.233</ele>
        <time>2014-12-20T14:27:05Z</time>
      </trkpt>
      <trkpt lat="61.2325379" lon="14.5258903">
        <ele>418.792</ele>
        <time>2014-12-20T14:27:13Z</time>
      </trkpt>
      <trkpt lat="61.2322398" lon="14.5264621">
        <ele>416.869</ele>
        <time>2014-12-20T14:27:18Z</time>
      </trkpt>
      <trkpt lat="61.2321167" lon="14.5266594">
        <ele>415.907</ele>
        <time>2014-12-20T14:27:20Z</time>
      </trkpt>
      <trkpt lat="61.2319257" lon="14.5269521">
        <ele>416.869</ele>
        <time>2014-12-20T14:27:24Z</time>
      </trkpt>
      <trkpt lat="61.231724" lon="14.5273027">
        <ele>416.869</ele>
        <time>2014-12-20T14:27:30Z</time>
      </trkpt>
      <trkpt lat="61.2316506" lon="14.5274945">
        <ele>417.35</ele>
        <time>2014-12-20T14:27:33Z</time>
      </trkpt>
      <trkpt lat="61.2315322" lon="14.5277481">
        <ele>416.869</ele>
        <time>2014-12-20T14:27:37Z</time>
      </trkpt>
      <trkpt lat="61.2313935" lon="14.5281103">
        <ele>416.388</ele>
        <time>2014-12-20T14:27:41Z</time>
      </trkpt>
      <trkpt lat="61.2312066" lon="14.5287009">
        <ele>413.024</ele>
        <time>2014-12-20T14:27:46Z</time>
      </trkpt>
      <trkpt lat="61.2309267" lon="14.5297598">
        <ele>410.14</ele>
        <time>2014-12-20T14:27:53Z</time>
      </trkpt>
      <trkpt lat="61.2306943" lon="14.5306642">
        <ele>407.736</ele>
        <time>2014-12-20T14:27:59Z</time>
      </trkpt>
      <trkpt lat="61.2304807" lon="14.5316037">
        <ele>407.256</ele>
        <time>2014-12-20T14:28:05Z</time>
      </trkpt>
      <trkpt lat="61.2301597" lon="14.5329322">
        <ele>404.372</ele>
        <time>2014-12-20T14:28:13Z</time>
      </trkpt>
      <trkpt lat="61.2298711" lon="14.5340235">
        <ele>401.969</ele>
        <time>2014-12-20T14:28:20Z</time>
      </trkpt>
      <trkpt lat="61.229825" lon="14.5341627">
        <ele>401.488</ele>
        <time>2014-12-20T14:28:21Z</time>
      </trkpt>
      <trkpt lat="61.2295229" lon="14.5348099">
        <ele>400.526</ele>
        <time>2014-12-20T14:28:27Z</time>
      </trkpt>
      <trkpt lat="61.2294899" lon="14.534874">
        <ele>400.526</ele>
        <time>2014-12-20T14:28:28Z</time>
      </trkpt>
      <trkpt lat="61.2294635" lon="14.5349545">
        <ele>401.007</ele>
        <time>2014-12-20T14:28:33Z</time>
      </trkpt>
      <trkpt lat="61.2294793" lon="14.5349398">
        <ele>401.488</ele>
        <time>2014-12-20T14:28:35Z</time>
      </trkpt>
      <trkpt lat="61.2296204" lon="14.5347394">
        <ele>403.41</ele>
        <time>2014-12-20T14:28:42Z</time>
      </trkpt>
      <trkpt lat="61.2297446" lon="14.5345432">
        <ele>405.333</ele>
        <time>2014-12-20T14:28:47Z</time>
      </trkpt>
      <trkpt lat="61.2298599" lon="14.5343116">
        <ele>408.217</ele>
        <time>2014-12-20T14:28:52Z</time>
      </trkpt>
      <trkpt lat="61.2299581" lon="14.5340742">
        <ele>409.178</ele>
        <time>2014-12-20T14:28:57Z</time>
      </trkpt>
      <trkpt lat="61.2300369" lon="14.5338536">
        <ele>409.659</ele>
        <time>2014-12-20T14:29:01Z</time>
      </trkpt>
      <trkpt lat="61.2301037" lon="14.5336122">
        <ele>408.217</ele>
        <time>2014-12-20T14:29:05Z</time>
      </trkpt>
      <trkpt lat="61.2301538" lon="14.5333878">
        <ele>407.736</ele>
        <time>2014-12-20T14:29:09Z</time>
      </trkpt>
      <trkpt lat="61.2302172" lon="14.533132">
        <ele>405.814</ele>
        <time>2014-12-20T14:29:14Z</time>
      </trkpt>
      <trkpt lat="61.2302814" lon="14.5329231">
        <ele>405.814</ele>
        <time>2014-12-20T14:29:18Z</time>
      </trkpt>
      <trkpt lat="61.230313" lon="14.5327659">
        <ele>406.294</ele>
        <time>2014-12-20T14:29:21Z</time>
      </trkpt>
      <trkpt lat="61.2303825" lon="14.5325628">
        <ele>409.178</ele>
        <time>2014-12-20T14:29:25Z</time>
      </trkpt>
      <trkpt lat="61.2304459" lon="14.5322809">
        <ele>412.062</ele>
        <time>2014-12-20T14:29:30Z</time>
      </trkpt>
      <trkpt lat="61.2304715" lon="14.5321478">
        <ele>413.504</ele>
        <time>2014-12-20T14:29:33Z</time>
      </trkpt>
      <trkpt lat="61.2305151" lon="14.5319619">
        <ele>414.946</ele>
        <time>2014-12-20T14:29:37Z</time>
      </trkpt>
      <trkpt lat="61.2305554" lon="14.5317819">
        <ele>415.907</ele>
        <time>2014-12-20T14:29:41Z</time>
      </trkpt>
      <trkpt lat="61.2306083" lon="14.531604">
        <ele>416.388</ele>
        <time>2014-12-20T14:29:45Z</time>
      </trkpt>
      <trkpt lat="61.2306591" lon="14.5313848">
        <ele>417.35</ele>
        <time>2014-12-20T14:29:50Z</time>
      </trkpt>
      <trkpt lat="61.2307227" lon="14.5311758">
        <ele>418.311</ele>
        <time>2014-12-20T14:29:55Z</time>
      </trkpt>
      <trkpt lat="61.2307802" lon="14.5309639">
        <ele>417.83</ele>
        <time>2014-12-20T14:29:59Z</time>
      </trkpt>
      <trkpt lat="61.2308532" lon="14.5307414">
        <ele>418.311</ele>
        <time>2014-12-20T14:30:04Z</time>
      </trkpt>
      <trkpt lat="61.2308796" lon="14.530649">
        <ele>419.272</ele>
        <time>2014-12-20T14:30:06Z</time>
      </trkpt>
      <trkpt lat="61.230899" lon="14.5305455">
        <ele>419.272</ele>
        <time>2014-12-20T14:30:08Z</time>
      </trkpt>
      <trkpt lat="61.2309417" lon="14.5303659">
        <ele>420.233</ele>
        <time>2014-12-20T14:30:12Z</time>
      </trkpt>
      <trkpt lat="61.2309786" lon="14.5302233">
        <ele>420.714</ele>
        <time>2014-12-20T14:30:15Z</time>
      </trkpt>
      <trkpt lat="61.2310261" lon="14.52998">
        <ele>422.156</ele>
        <time>2014-12-20T14:30:20Z</time>
      </trkpt>
      <trkpt lat="61.2310948" lon="14.5297824">
        <ele>423.117</ele>
        <time>2014-12-20T14:30:24Z</time>
      </trkpt>
      <trkpt lat="61.2311537" lon="14.5295537">
        <ele>424.559</ele>
        <time>2014-12-20T14:30:28Z</time>
      </trkpt>
      <trkpt lat="61.231204" lon="14.5293604">
        <ele>425.521</ele>
        <time>2014-12-20T14:30:32Z</time>
      </trkpt>
      <trkpt lat="61.2312473" lon="14.5291436">
        <ele>425.04</ele>
        <time>2014-12-20T14:30:36Z</time>
      </trkpt>
      <trkpt lat="61.2313077" lon="14.5289147">
        <ele>425.04</ele>
        <time>2014-12-20T14:30:41Z</time>
      </trkpt>
      <trkpt lat="61.2313459" lon="14.5287907">
        <ele>425.04</ele>
        <time>2014-12-20T14:30:44Z</time>
      </trkpt>
      <trkpt lat="61.2313895" lon="14.5286599">
        <ele>424.559</ele>
        <time>2014-12-20T14:30:47Z</time>
      </trkpt>
      <trkpt lat="61.2314375" lon="14.5284835">
        <ele>425.521</ele>
        <time>2014-12-20T14:30:51Z</time>
      </trkpt>
      <trkpt lat="61.231492" lon="14.5282973">
        <ele>425.04</ele>
        <time>2014-12-20T14:30:56Z</time>
      </trkpt>
      <trkpt lat="61.2315448" lon="14.5281529">
        <ele>423.598</ele>
        <time>2014-12-20T14:31:00Z</time>
      </trkpt>
      <trkpt lat="61.231548" lon="14.5281104">
        <ele>424.079</ele>
        <time>2014-12-20T14:31:01Z</time>
      </trkpt>
      <trkpt lat="61.2316334" lon="14.5278844">
        <ele>424.559</ele>
        <time>2014-12-20T14:31:07Z</time>
      </trkpt>
      <trkpt lat="61.2316864" lon="14.5277214">
        <ele>425.04</ele>
        <time>2014-12-20T14:31:12Z</time>
      </trkpt>
      <trkpt lat="61.2317722" lon="14.5275437">
        <ele>425.521</ele>
        <time>2014-12-20T14:31:17Z</time>
      </trkpt>
      <trkpt lat="61.2318448" lon="14.52737">
        <ele>426.001</ele>
        <time>2014-12-20T14:31:21Z</time>
      </trkpt>
      <trkpt lat="61.2319288" lon="14.5271762">
        <ele>426.001</ele>
        <time>2014-12-20T14:31:25Z</time>
      </trkpt>
      <trkpt lat="61.2320748" lon="14.5269117">
        <ele>424.559</ele>
        <time>2014-12-20T14:31:30Z</time>
      </trkpt>
      <trkpt lat="61.2322139" lon="14.5266423">
        <ele>422.156</ele>
        <time>2014-12-20T14:31:34Z</time>
      </trkpt>
      <trkpt lat="61.2322989" lon="14.5265036">
        <ele>420.233</ele>
        <time>2014-12-20T14:31:36Z</time>
      </trkpt>
      <trkpt lat="61.2324455" lon="14.5261741">
        <ele>417.35</ele>
        <time>2014-12-20T14:31:41Z</time>
      </trkpt>
      <trkpt lat="61.2324892" lon="14.5260995">
        <ele>416.869</ele>
        <time>2014-12-20T14:31:43Z</time>
      </trkpt>
      <trkpt lat="61.2326389" lon="14.5258808">
        <ele>416.869</ele>
        <time>2014-12-20T14:31:50Z</time>
      </trkpt>
      <trkpt lat="61.2327107" lon="14.5257125">
        <ele>416.388</ele>
        <time>2014-12-20T14:31:54Z</time>
      </trkpt>
      <trkpt lat="61.2327754" lon="14.5255316">
        <ele>417.35</ele>
        <time>2014-12-20T14:31:58Z</time>
      </trkpt>
      <trkpt lat="61.2328455" lon="14.5252843">
        <ele>420.714</ele>
        <time>2014-12-20T14:32:04Z</time>
      </trkpt>
      <trkpt lat="61.2329047" lon="14.5251096">
        <ele>423.117</ele>
        <time>2014-12-20T14:32:09Z</time>
      </trkpt>
      <trkpt lat="61.2329549" lon="14.5249623">
        <ele>424.079</ele>
        <time>2014-12-20T14:32:12Z</time>
      </trkpt>
      <trkpt lat="61.2330264" lon="14.5247579">
        <ele>426.482</ele>
        <time>2014-12-20T14:32:17Z</time>
      </trkpt>
      <trkpt lat="61.2330981" lon="14.5244834">
        <ele>426.963</ele>
        <time>2014-12-20T14:32:22Z</time>
      </trkpt>
      <trkpt lat="61.2331656" lon="14.5242393">
        <ele>426.963</ele>
        <time>2014-12-20T14:32:26Z</time>
      </trkpt>
      <trkpt lat="61.2332538" lon="14.5239109">
        <ele>427.924</ele>
        <time>2014-12-20T14:32:31Z</time>
      </trkpt>
      <trkpt lat="61.2333206" lon="14.5236684">
        <ele>428.885</ele>
        <time>2014-12-20T14:32:35Z</time>
      </trkpt>
      <trkpt lat="61.2334221" lon="14.5234212">
        <ele>429.366</ele>
        <time>2014-12-20T14:32:40Z</time>
      </trkpt>
      <trkpt lat="61.2334879" lon="14.523193">
        <ele>430.808</ele>
        <time>2014-12-20T14:32:44Z</time>
      </trkpt>
      <trkpt lat="61.2335517" lon="14.5229312">
        <ele>432.25</ele>
        <time>2014-12-20T14:32:49Z</time>
      </trkpt>
      <trkpt lat="61.2336003" lon="14.5227175">
        <ele>432.731</ele>
        <time>2014-12-20T14:32:53Z</time>
      </trkpt>
      <trkpt lat="61.2336636" lon="14.5224377">
        <ele>433.211</ele>
        <time>2014-12-20T14:32:58Z</time>
      </trkpt>
      <trkpt lat="61.233721" lon="14.5222148">
        <ele>433.692</ele>
        <time>2014-12-20T14:33:02Z</time>
      </trkpt>
      <trkpt lat="61.2337858" lon="14.5219695">
        <ele>434.173</ele>
        <time>2014-12-20T14:33:07Z</time>
      </trkpt>
      <trkpt lat="61.2338343" lon="14.5217237">
        <ele>435.615</ele>
        <time>2014-12-20T14:33:12Z</time>
      </trkpt>
      <trkpt lat="61.2338583" lon="14.5215399">
        <ele>435.134</ele>
        <time>2014-12-20T14:33:16Z</time>
      </trkpt>
      <trkpt lat="61.2339008" lon="14.5213416">
        <ele>436.095</ele>
        <time>2014-12-20T14:33:20Z</time>
      </trkpt>
      <trkpt lat="61.2339406" lon="14.5211226">
        <ele>436.095</ele>
        <time>2014-12-20T14:33:24Z</time>
      </trkpt>
      <trkpt lat="61.2339826" lon="14.520908">
        <ele>436.576</ele>
        <time>2014-12-20T14:33:28Z</time>
      </trkpt>
      <trkpt lat="61.2340365" lon="14.5206074">
        <ele>435.615</ele>
        <time>2014-12-20T14:33:33Z</time>
      </trkpt>
      <trkpt lat="61.2340923" lon="14.5203175">
        <ele>435.134</ele>
        <time>2014-12-20T14:33:37Z</time>
      </trkpt>
      <trkpt lat="61.2341499" lon="14.5200725">
        <ele>435.615</ele>
        <time>2014-12-20T14:33:41Z</time>
      </trkpt>
      <trkpt lat="61.2342007" lon="14.5198554">
        <ele>436.095</ele>
        <time>2014-12-20T14:33:45Z</time>
      </trkpt>
      <trkpt lat="61.2342551" lon="14.5196586">
        <ele>436.095</ele>
        <time>2014-12-20T14:33:49Z</time>
      </trkpt>
      <trkpt lat="61.2342913" lon="14.5195351">
        <ele>436.576</ele>
        <time>2014-12-20T14:33:52Z</time>
      </trkpt>
      <trkpt lat="61.2343008" lon="14.5194626">
        <ele>438.018</ele>
        <time>2014-12-20T14:34:07Z</time>
      </trkpt>
      <trkpt lat="61.2343054" lon="14.5194534">
        <ele>438.018</ele>
        <time>2014-12-20T14:34:08Z</time>
      </trkpt>
      <trkpt lat="61.2343567" lon="14.5193105">
        <ele>438.499</ele>
        <time>2014-12-20T14:34:11Z</time>
      </trkpt>
      <trkpt lat="61.2344435" lon="14.5190572">
        <ele>438.018</ele>
        <time>2014-12-20T14:34:15Z</time>
      </trkpt>
      <trkpt lat="61.2345647" lon="14.5187467">
        <ele>438.499</ele>
        <time>2014-12-20T14:34:19Z</time>
      </trkpt>
      <trkpt lat="61.2346648" lon="14.5185024">
        <ele>438.018</ele>
        <time>2014-12-20T14:34:22Z</time>
      </trkpt>
      <trkpt lat="61.2348289" lon="14.5180011">
        <ele>436.095</ele>
        <time>2014-12-20T14:34:28Z</time>
      </trkpt>
      <trkpt lat="61.2348913" lon="14.5178594">
        <ele>435.615</ele>
        <time>2014-12-20T14:34:30Z</time>
      </trkpt>
      <trkpt lat="61.235016" lon="14.5175504">
        <ele>437.057</ele>
        <time>2014-12-20T14:34:35Z</time>
      </trkpt>
      <trkpt lat="61.23513" lon="14.5172213">
        <ele>438.499</ele>
        <time>2014-12-20T14:34:41Z</time>
      </trkpt>
      <trkpt lat="61.2352196" lon="14.5170064">
        <ele>438.979</ele>
        <time>2014-12-20T14:34:45Z</time>
      </trkpt>
      <trkpt lat="61.2353189" lon="14.5167951">
        <ele>439.46</ele>
        <time>2014-12-20T14:34:49Z</time>
      </trkpt>
      <trkpt lat="61.2354013" lon="14.5165014">
        <ele>441.863</ele>
        <time>2014-12-20T14:34:54Z</time>
      </trkpt>
      <trkpt lat="61.2354812" lon="14.5162593">
        <ele>442.344</ele>
        <time>2014-12-20T14:34:58Z</time>
      </trkpt>
      <trkpt lat="61.235577" lon="14.5160323">
        <ele>442.824</ele>
        <time>2014-12-20T14:35:02Z</time>
      </trkpt>
      <trkpt lat="61.2356702" lon="14.5157897">
        <ele>443.305</ele>
        <time>2014-12-20T14:35:06Z</time>
      </trkpt>
      <trkpt lat="61.2357599" lon="14.5155331">
        <ele>442.824</ele>
        <time>2014-12-20T14:35:10Z</time>
      </trkpt>
      <trkpt lat="61.2358537" lon="14.5152825">
        <ele>442.344</ele>
        <time>2014-12-20T14:35:14Z</time>
      </trkpt>
      <trkpt lat="61.2358749" lon="14.515215">
        <ele>441.863</ele>
        <time>2014-12-20T14:35:15Z</time>
      </trkpt>
      <trkpt lat="61.2359703" lon="14.5149823">
        <ele>441.382</ele>
        <time>2014-12-20T14:35:19Z</time>
      </trkpt>
      <trkpt lat="61.2360718" lon="14.5147536">
        <ele>440.902</ele>
        <time>2014-12-20T14:35:23Z</time>
      </trkpt>
      <trkpt lat="61.2361821" lon="14.5145172">
        <ele>439.94</ele>
        <time>2014-12-20T14:35:27Z</time>
      </trkpt>
      <trkpt lat="61.2362681" lon="14.5142722">
        <ele>438.499</ele>
        <time>2014-12-20T14:35:31Z</time>
      </trkpt>
      <trkpt lat="61.2363867" lon="14.5139235">
        <ele>437.057</ele>
        <time>2014-12-20T14:35:36Z</time>
      </trkpt>
      <trkpt lat="61.236504" lon="14.5135899">
        <ele>436.095</ele>
        <time>2014-12-20T14:35:41Z</time>
      </trkpt>
      <trkpt lat="61.2365918" lon="14.513332">
        <ele>435.615</ele>
        <time>2014-12-20T14:35:45Z</time>
      </trkpt>
      <trkpt lat="61.2366168" lon="14.5132651">
        <ele>436.095</ele>
        <time>2014-12-20T14:35:46Z</time>
      </trkpt>
      <trkpt lat="61.2367204" lon="14.512997">
        <ele>436.095</ele>
        <time>2014-12-20T14:35:51Z</time>
      </trkpt>
      <trkpt lat="61.2368289" lon="14.5126885">
        <ele>437.057</ele>
        <time>2014-12-20T14:35:56Z</time>
      </trkpt>
      <trkpt lat="61.236939" lon="14.5123702">
        <ele>437.057</ele>
        <time>2014-12-20T14:36:01Z</time>
      </trkpt>
      <trkpt lat="61.2370549" lon="14.5120475">
        <ele>437.537</ele>
        <time>2014-12-20T14:36:06Z</time>
      </trkpt>
      <trkpt lat="61.237156" lon="14.5117569">
        <ele>437.537</ele>
        <time>2014-12-20T14:36:10Z</time>
      </trkpt>
      <trkpt lat="61.2372374" lon="14.5115062">
        <ele>437.537</ele>
        <time>2014-12-20T14:36:14Z</time>
      </trkpt>
      <trkpt lat="61.2373273" lon="14.5112723">
        <ele>437.537</ele>
        <time>2014-12-20T14:36:18Z</time>
      </trkpt>
      <trkpt lat="61.2374178" lon="14.5109843">
        <ele>437.537</ele>
        <time>2014-12-20T14:36:23Z</time>
      </trkpt>
      <trkpt lat="61.2375102" lon="14.5107586">
        <ele>436.576</ele>
        <time>2014-12-20T14:36:27Z</time>
      </trkpt>
      <trkpt lat="61.2376206" lon="14.5104851">
        <ele>436.095</ele>
        <time>2014-12-20T14:36:32Z</time>
      </trkpt>
      <trkpt lat="61.2376913" lon="14.5102909">
        <ele>436.095</ele>
        <time>2014-12-20T14:36:36Z</time>
      </trkpt>
      <trkpt lat="61.2377812" lon="14.5100416">
        <ele>436.095</ele>
        <time>2014-12-20T14:36:41Z</time>
      </trkpt>
      <trkpt lat="61.2378562" lon="14.5098546">
        <ele>436.576</ele>
        <time>2014-12-20T14:36:45Z</time>
      </trkpt>
      <trkpt lat="61.2379365" lon="14.5096688">
        <ele>437.537</ele>
        <time>2014-12-20T14:36:49Z</time>
      </trkpt>
      <trkpt lat="61.2379894" lon="14.5095051">
        <ele>438.018</ele>
        <time>2014-12-20T14:36:52Z</time>
      </trkpt>
      <trkpt lat="61.2380772" lon="14.5093123">
        <ele>438.979</ele>
        <time>2014-12-20T14:36:56Z</time>
      </trkpt>
      <trkpt lat="61.2381687" lon="14.5090668">
        <ele>437.057</ele>
        <time>2014-12-20T14:37:01Z</time>
      </trkpt>
      <trkpt lat="61.2382479" lon="14.5088761">
        <ele>436.095</ele>
        <time>2014-12-20T14:37:05Z</time>
      </trkpt>
      <trkpt lat="61.2383168" lon="14.5086792">
        <ele>436.095</ele>
        <time>2014-12-20T14:37:09Z</time>
      </trkpt>
      <trkpt lat="61.2384077" lon="14.508444">
        <ele>437.057</ele>
        <time>2014-12-20T14:37:14Z</time>
      </trkpt>
      <trkpt lat="61.2384828" lon="14.5082381">
        <ele>437.057</ele>
        <time>2014-12-20T14:37:18Z</time>
      </trkpt>
      <trkpt lat="61.2385618" lon="14.5080344">
        <ele>437.537</ele>
        <time>2014-12-20T14:37:22Z</time>
      </trkpt>
      <trkpt lat="61.2386208" lon="14.507865">
        <ele>438.499</ele>
        <time>2014-12-20T14:37:25Z</time>
      </trkpt>
      <trkpt lat="61.2387011" lon="14.5076497">
        <ele>439.46</ele>
        <time>2014-12-20T14:37:29Z</time>
      </trkpt>
      <trkpt lat="61.2387838" lon="14.5074512">
        <ele>440.421</ele>
        <time>2014-12-20T14:37:33Z</time>
      </trkpt>
      <trkpt lat="61.2389139" lon="14.5071393">
        <ele>440.421</ele>
        <time>2014-12-20T14:37:38Z</time>
      </trkpt>
      <trkpt lat="61.2390755" lon="14.506799">
        <ele>439.46</ele>
        <time>2014-12-20T14:37:43Z</time>
      </trkpt>
      <trkpt lat="61.2391993" lon="14.5065103">
        <ele>438.499</ele>
        <time>2014-12-20T14:37:47Z</time>
      </trkpt>
      <trkpt lat="61.2393963" lon="14.5061538">
        <ele>437.057</ele>
        <time>2014-12-20T14:37:53Z</time>
      </trkpt>
      <trkpt lat="61.2394283" lon="14.5061067">
        <ele>437.057</ele>
        <time>2014-12-20T14:37:54Z</time>
      </trkpt>
      <trkpt lat="61.239588" lon="14.5059162">
        <ele>437.537</ele>
        <time>2014-12-20T14:37:59Z</time>
      </trkpt>
      <trkpt lat="61.2397023" lon="14.5057501">
        <ele>437.537</ele>
        <time>2014-12-20T14:38:03Z</time>
      </trkpt>
      <trkpt lat="61.2398404" lon="14.5055672">
        <ele>438.979</ele>
        <time>2014-12-20T14:38:07Z</time>
      </trkpt>
      <trkpt lat="61.2399644" lon="14.5054012">
        <ele>439.46</ele>
        <time>2014-12-20T14:38:11Z</time>
      </trkpt>
      <trkpt lat="61.2401017" lon="14.5052479">
        <ele>438.018</ele>
        <time>2014-12-20T14:38:15Z</time>
      </trkpt>
      <trkpt lat="61.2402785" lon="14.5050802">
        <ele>436.576</ele>
        <time>2014-12-20T14:38:20Z</time>
      </trkpt>
      <trkpt lat="61.2404251" lon="14.5049583">
        <ele>433.692</ele>
        <time>2014-12-20T14:38:24Z</time>
      </trkpt>
      <trkpt lat="61.2406411" lon="14.5047835">
        <ele>430.327</ele>
        <time>2014-12-20T14:38:30Z</time>
      </trkpt>
      <trkpt lat="61.2407653" lon="14.504743">
        <ele>428.405</ele>
        <time>2014-12-20T14:38:33Z</time>
      </trkpt>
      <trkpt lat="61.2408586" lon="14.5047198">
        <ele>428.405</ele>
        <time>2014-12-20T14:38:35Z</time>
      </trkpt>
      <trkpt lat="61.24094" lon="14.5046884">
        <ele>428.405</ele>
        <time>2014-12-20T14:38:37Z</time>
      </trkpt>
      <trkpt lat="61.2410477" lon="14.5046473">
        <ele>426.963</ele>
        <time>2014-12-20T14:38:40Z</time>
      </trkpt>
      <trkpt lat="61.2412036" lon="14.5046548">
        <ele>426.482</ele>
        <time>2014-12-20T14:38:44Z</time>
      </trkpt>
      <trkpt lat="61.2413455" lon="14.5046415">
        <ele>425.521</ele>
        <time>2014-12-20T14:38:48Z</time>
      </trkpt>
      <trkpt lat="61.2415393" lon="14.5046289">
        <ele>424.559</ele>
        <time>2014-12-20T14:38:54Z</time>
      </trkpt>
      <trkpt lat="61.2416876" lon="14.5046242">
        <ele>424.079</ele>
        <time>2014-12-20T14:38:58Z</time>
      </trkpt>
      <trkpt lat="61.2418796" lon="14.5046316">
        <ele>424.079</ele>
        <time>2014-12-20T14:39:03Z</time>
      </trkpt>
      <trkpt lat="61.2420551" lon="14.5046157">
        <ele>423.598</ele>
        <time>2014-12-20T14:39:07Z</time>
      </trkpt>
      <trkpt lat="61.2420961" lon="14.504605">
        <ele>423.598</ele>
        <time>2014-12-20T14:39:08Z</time>
      </trkpt>
      <trkpt lat="61.2424225" lon="14.5045735">
        <ele>422.156</ele>
        <time>2014-12-20T14:39:15Z</time>
      </trkpt>
      <trkpt lat="61.2425881" lon="14.5045456">
        <ele>421.195</ele>
        <time>2014-12-20T14:39:19Z</time>
      </trkpt>
      <trkpt lat="61.2427508" lon="14.5045227">
        <ele>419.753</ele>
        <time>2014-12-20T14:39:23Z</time>
      </trkpt>
      <trkpt lat="61.2428991" lon="14.504482">
        <ele>418.311</ele>
        <time>2014-12-20T14:39:27Z</time>
      </trkpt>
      <trkpt lat="61.2430533" lon="14.5044684">
        <ele>418.311</ele>
        <time>2014-12-20T14:39:31Z</time>
      </trkpt>
      <trkpt lat="61.2432499" lon="14.5044638">
        <ele>420.714</ele>
        <time>2014-12-20T14:39:37Z</time>
      </trkpt>
      <trkpt lat="61.2433814" lon="14.5044023">
        <ele>422.156</ele>
        <time>2014-12-20T14:39:41Z</time>
      </trkpt>
      <trkpt lat="61.2435212" lon="14.5042843">
        <ele>423.598</ele>
        <time>2014-12-20T14:39:45Z</time>
      </trkpt>
      <trkpt lat="61.2436752" lon="14.5040267">
        <ele>424.079</ele>
        <time>2014-12-20T14:39:50Z</time>
      </trkpt>
      <trkpt lat="61.243833" lon="14.5037432">
        <ele>426.482</ele>
        <time>2014-12-20T14:39:55Z</time>
      </trkpt>
      <trkpt lat="61.2438921" lon="14.5036354">
        <ele>426.963</ele>
        <time>2014-12-20T14:39:57Z</time>
      </trkpt>
      <trkpt lat="61.2440212" lon="14.5034126">
        <ele>427.924</ele>
        <time>2014-12-20T14:40:01Z</time>
      </trkpt>
      <trkpt lat="61.2441418" lon="14.5031647">
        <ele>428.885</ele>
        <time>2014-12-20T14:40:06Z</time>
      </trkpt>
      <trkpt lat="61.2443081" lon="14.5029236">
        <ele>432.25</ele>
        <time>2014-12-20T14:40:12Z</time>
      </trkpt>
      <trkpt lat="61.2444219" lon="14.5027169">
        <ele>434.653</ele>
        <time>2014-12-20T14:40:17Z</time>
      </trkpt>
      <trkpt lat="61.2445443" lon="14.502476">
        <ele>436.576</ele>
        <time>2014-12-20T14:40:22Z</time>
      </trkpt>
      <trkpt lat="61.2446729" lon="14.5022211">
        <ele>437.537</ele>
        <time>2014-12-20T14:40:27Z</time>
      </trkpt>
      <trkpt lat="61.2448084" lon="14.5019769">
        <ele>438.499</ele>
        <time>2014-12-20T14:40:32Z</time>
      </trkpt>
      <trkpt lat="61.2449433" lon="14.5017078">
        <ele>439.46</ele>
        <time>2014-12-20T14:40:37Z</time>
      </trkpt>
      <trkpt lat="61.2450715" lon="14.5014457">
        <ele>440.902</ele>
        <time>2014-12-20T14:40:42Z</time>
      </trkpt>
      <trkpt lat="61.2451779" lon="14.5012553">
        <ele>441.382</ele>
        <time>2014-12-20T14:40:46Z</time>
      </trkpt>
      <trkpt lat="61.2452748" lon="14.5010765">
        <ele>441.382</ele>
        <time>2014-12-20T14:40:50Z</time>
      </trkpt>
      <trkpt lat="61.2453876" lon="14.5008541">
        <ele>441.382</ele>
        <time>2014-12-20T14:40:54Z</time>
      </trkpt>
      <trkpt lat="61.2454866" lon="14.5006259">
        <ele>440.421</ele>
        <time>2014-12-20T14:40:58Z</time>
      </trkpt>
      <trkpt lat="61.2456276" lon="14.5003948">
        <ele>441.863</ele>
        <time>2014-12-20T14:41:02Z</time>
      </trkpt>
      <trkpt lat="61.2457078" lon="14.5002094">
        <ele>440.902</ele>
        <time>2014-12-20T14:41:05Z</time>
      </trkpt>
      <trkpt lat="61.2458145" lon="14.4999747">
        <ele>440.421</ele>
        <time>2014-12-20T14:41:09Z</time>
      </trkpt>
      <trkpt lat="61.2459687" lon="14.4996308">
        <ele>439.46</ele>
        <time>2014-12-20T14:41:15Z</time>
      </trkpt>
      <trkpt lat="61.246074" lon="14.4993947">
        <ele>438.018</ele>
        <time>2014-12-20T14:41:20Z</time>
      </trkpt>
      <trkpt lat="61.2462019" lon="14.4991971">
        <ele>437.537</ele>
        <time>2014-12-20T14:41:25Z</time>
      </trkpt>
      <trkpt lat="61.2463274" lon="14.4989448">
        <ele>437.537</ele>
        <time>2014-12-20T14:41:30Z</time>
      </trkpt>
      <trkpt lat="61.24646" lon="14.4987008">
        <ele>438.499</ele>
        <time>2014-12-20T14:41:35Z</time>
      </trkpt>
      <trkpt lat="61.2465381" lon="14.4985067">
        <ele>438.979</ele>
        <time>2014-12-20T14:41:39Z</time>
      </trkpt>
      <trkpt lat="61.2466127" lon="14.4983096">
        <ele>438.979</ele>
        <time>2014-12-20T14:41:43Z</time>
      </trkpt>
      <trkpt lat="61.2466863" lon="14.4981341">
        <ele>438.499</ele>
        <time>2014-12-20T14:41:47Z</time>
      </trkpt>
      <trkpt lat="61.2467981" lon="14.4978404">
        <ele>437.057</ele>
        <time>2014-12-20T14:41:53Z</time>
      </trkpt>
      <trkpt lat="61.2468658" lon="14.4976742">
        <ele>435.615</ele>
        <time>2014-12-20T14:41:57Z</time>
      </trkpt>
      <trkpt lat="61.2469707" lon="14.4974819">
        <ele>435.615</ele>
        <time>2014-12-20T14:42:02Z</time>
      </trkpt>
      <trkpt lat="61.2470471" lon="14.4973261">
        <ele>436.095</ele>
        <time>2014-12-20T14:42:06Z</time>
      </trkpt>
      <trkpt lat="61.2471349" lon="14.4971698">
        <ele>436.095</ele>
        <time>2014-12-20T14:42:10Z</time>
      </trkpt>
      <trkpt lat="61.2472158" lon="14.4969776">
        <ele>435.615</ele>
        <time>2014-12-20T14:42:14Z</time>
      </trkpt>
      <trkpt lat="61.2473248" lon="14.4967143">
        <ele>438.499</ele>
        <time>2014-12-20T14:42:19Z</time>
      </trkpt>
      <trkpt lat="61.2474431" lon="14.4964371">
        <ele>440.421</ele>
        <time>2014-12-20T14:42:25Z</time>
      </trkpt>
      <trkpt lat="61.2475468" lon="14.4961714">
        <ele>441.382</ele>
        <time>2014-12-20T14:42:29Z</time>
      </trkpt>
      <trkpt lat="61.2476783" lon="14.4958918">
        <ele>440.902</ele>
        <time>2014-12-20T14:42:33Z</time>
      </trkpt>
      <trkpt lat="61.2477367" lon="14.4957321">
        <ele>439.46</ele>
        <time>2014-12-20T14:42:35Z</time>
      </trkpt>
      <trkpt lat="61.247847" lon="14.4954319">
        <ele>437.057</ele>
        <time>2014-12-20T14:42:39Z</time>
      </trkpt>
      <trkpt lat="61.2479699" lon="14.4951711">
        <ele>435.134</ele>
        <time>2014-12-20T14:42:43Z</time>
      </trkpt>
      <trkpt lat="61.2480878" lon="14.4949729">
        <ele>432.731</ele>
        <time>2014-12-20T14:42:47Z</time>
      </trkpt>
      <trkpt lat="61.2481952" lon="14.4947826">
        <ele>431.769</ele>
        <time>2014-12-20T14:42:51Z</time>
      </trkpt>
      <trkpt lat="61.2483821" lon="14.4944075">
        <ele>430.808</ele>
        <time>2014-12-20T14:42:58Z</time>
      </trkpt>
      <trkpt lat="61.248462" lon="14.4942733">
        <ele>431.289</ele>
        <time>2014-12-20T14:43:01Z</time>
      </trkpt>
      <trkpt lat="61.2485635" lon="14.4940987">
        <ele>431.769</ele>
        <time>2014-12-20T14:43:05Z</time>
      </trkpt>
      <trkpt lat="61.2486713" lon="14.4939394">
        <ele>432.731</ele>
        <time>2014-12-20T14:43:09Z</time>
      </trkpt>
      <trkpt lat="61.2487821" lon="14.4936771">
        <ele>433.692</ele>
        <time>2014-12-20T14:43:14Z</time>
      </trkpt>
      <trkpt lat="61.2488666" lon="14.4934182">
        <ele>435.134</ele>
        <time>2014-12-20T14:43:18Z</time>
      </trkpt>
      <trkpt lat="61.2489356" lon="14.4931473">
        <ele>436.576</ele>
        <time>2014-12-20T14:43:22Z</time>
      </trkpt>
      <trkpt lat="61.2490048" lon="14.4928351">
        <ele>438.499</ele>
        <time>2014-12-20T14:43:27Z</time>
      </trkpt>
      <trkpt lat="61.2490506" lon="14.4925634">
        <ele>439.46</ele>
        <time>2014-12-20T14:43:31Z</time>
      </trkpt>
      <trkpt lat="61.2490587" lon="14.4924957">
        <ele>439.94</ele>
        <time>2014-12-20T14:43:32Z</time>
      </trkpt>
      <trkpt lat="61.2490757" lon="14.4922862">
        <ele>441.382</ele>
        <time>2014-12-20T14:43:35Z</time>
      </trkpt>
      <trkpt lat="61.2490638" lon="14.49199">
        <ele>442.824</ele>
        <time>2014-12-20T14:43:39Z</time>
      </trkpt>
      <trkpt lat="61.249048" lon="14.4916664">
        <ele>443.305</ele>
        <time>2014-12-20T14:43:43Z</time>
      </trkpt>
      <trkpt lat="61.2489951" lon="14.4912202">
        <ele>442.824</ele>
        <time>2014-12-20T14:43:48Z</time>
      </trkpt>
      <trkpt lat="61.2489518" lon="14.4908412">
        <ele>442.344</ele>
        <time>2014-12-20T14:43:53Z</time>
      </trkpt>
      <trkpt lat="61.2489361" lon="14.4906778">
        <ele>442.344</ele>
        <time>2014-12-20T14:43:55Z</time>
      </trkpt>
      <trkpt lat="61.2489034" lon="14.4902895">
        <ele>440.902</ele>
        <time>2014-12-20T14:44:00Z</time>
      </trkpt>
      <trkpt lat="61.2488759" lon="14.4899415">
        <ele>440.421</ele>
        <time>2014-12-20T14:44:05Z</time>
      </trkpt>
      <trkpt lat="61.24888" lon="14.4897062">
        <ele>439.94</ele>
        <time>2014-12-20T14:44:08Z</time>
      </trkpt>
      <trkpt lat="61.2488903" lon="14.4893649">
        <ele>438.979</ele>
        <time>2014-12-20T14:44:12Z</time>
      </trkpt>
      <trkpt lat="61.2489044" lon="14.4890867">
        <ele>437.537</ele>
        <time>2014-12-20T14:44:15Z</time>
      </trkpt>
      <trkpt lat="61.2489624" lon="14.4886355">
        <ele>434.653</ele>
        <time>2014-12-20T14:44:20Z</time>
      </trkpt>
      <trkpt lat="61.2490161" lon="14.4883216">
        <ele>433.211</ele>
        <time>2014-12-20T14:44:24Z</time>
      </trkpt>
      <trkpt lat="61.2490475" lon="14.4881582">
        <ele>432.25</ele>
        <time>2014-12-20T14:44:26Z</time>
      </trkpt>
      <trkpt lat="61.2490917" lon="14.487942">
        <ele>431.289</ele>
        <time>2014-12-20T14:44:29Z</time>
      </trkpt>
      <trkpt lat="61.2491836" lon="14.4876056">
        <ele>430.808</ele>
        <time>2014-12-20T14:44:34Z</time>
      </trkpt>
      <trkpt lat="61.2492546" lon="14.4872394">
        <ele>430.808</ele>
        <time>2014-12-20T14:44:39Z</time>
      </trkpt>
      <trkpt lat="61.249297" lon="14.4870132">
        <ele>430.327</ele>
        <time>2014-12-20T14:44:42Z</time>
      </trkpt>
      <trkpt lat="61.2493529" lon="14.4867561">
        <ele>429.366</ele>
        <time>2014-12-20T14:44:46Z</time>
      </trkpt>
      <trkpt lat="61.2494173" lon="14.48648">
        <ele>429.366</ele>
        <time>2014-12-20T14:44:50Z</time>
      </trkpt>
      <trkpt lat="61.2494689" lon="14.4862019">
        <ele>430.808</ele>
        <time>2014-12-20T14:44:54Z</time>
      </trkpt>
      <trkpt lat="61.2495249" lon="14.4859658">
        <ele>430.808</ele>
        <time>2014-12-20T14:44:58Z</time>
      </trkpt>
      <trkpt lat="61.2495681" lon="14.4857744">
        <ele>432.731</ele>
        <time>2014-12-20T14:45:01Z</time>
      </trkpt>
      <trkpt lat="61.2496007" lon="14.4856168">
        <ele>433.692</ele>
        <time>2014-12-20T14:45:04Z</time>
      </trkpt>
      <trkpt lat="61.2496602" lon="14.4853166">
        <ele>436.095</ele>
        <time>2014-12-20T14:45:09Z</time>
      </trkpt>
      <trkpt lat="61.2497059" lon="14.4850705">
        <ele>437.057</ele>
        <time>2014-12-20T14:45:13Z</time>
      </trkpt>
      <trkpt lat="61.249727" lon="14.4847898">
        <ele>437.057</ele>
        <time>2014-12-20T14:45:17Z</time>
      </trkpt>
      <trkpt lat="61.2497198" lon="14.4843925">
        <ele>438.499</ele>
        <time>2014-12-20T14:45:22Z</time>
      </trkpt>
      <trkpt lat="61.2497265" lon="14.4840631">
        <ele>438.499</ele>
        <time>2014-12-20T14:45:26Z</time>
      </trkpt>
      <trkpt lat="61.2496978" lon="14.4837641">
        <ele>438.018</ele>
        <time>2014-12-20T14:45:31Z</time>
      </trkpt>
      <trkpt lat="61.249681" lon="14.4834181">
        <ele>437.537</ele>
        <time>2014-12-20T14:45:36Z</time>
      </trkpt>
      <trkpt lat="61.2496713" lon="14.4831579">
        <ele>438.018</ele>
        <time>2014-12-20T14:45:40Z</time>
      </trkpt>
      <trkpt lat="61.2496617" lon="14.4828927">
        <ele>437.057</ele>
        <time>2014-12-20T14:45:44Z</time>
      </trkpt>
      <trkpt lat="61.249638" lon="14.4826203">
        <ele>436.576</ele>
        <time>2014-12-20T14:45:48Z</time>
      </trkpt>
      <trkpt lat="61.2496462" lon="14.4823578">
        <ele>436.576</ele>
        <time>2014-12-20T14:45:52Z</time>
      </trkpt>
      <trkpt lat="61.2496388" lon="14.4821091">
        <ele>436.576</ele>
        <time>2014-12-20T14:45:56Z</time>
      </trkpt>
      <trkpt lat="61.2496268" lon="14.4817867">
        <ele>437.057</ele>
        <time>2014-12-20T14:46:00Z</time>
      </trkpt>
      <trkpt lat="61.2496108" lon="14.4814698">
        <ele>436.095</ele>
        <time>2014-12-20T14:46:04Z</time>
      </trkpt>
      <trkpt lat="61.2495808" lon="14.4811399">
        <ele>435.134</ele>
        <time>2014-12-20T14:46:08Z</time>
      </trkpt>
      <trkpt lat="61.2495472" lon="14.4807994">
        <ele>433.692</ele>
        <time>2014-12-20T14:46:12Z</time>
      </trkpt>
      <trkpt lat="61.2495212" lon="14.4805092">
        <ele>432.25</ele>
        <time>2014-12-20T14:46:15Z</time>
      </trkpt>
      <trkpt lat="61.24951" lon="14.4800475">
        <ele>430.808</ele>
        <time>2014-12-20T14:46:20Z</time>
      </trkpt>
      <trkpt lat="61.2495089" lon="14.4799582">
        <ele>430.808</ele>
        <time>2014-12-20T14:46:21Z</time>
      </trkpt>
      <trkpt lat="61.2494954" lon="14.4796403">
        <ele>430.808</ele>
        <time>2014-12-20T14:46:25Z</time>
      </trkpt>
      <trkpt lat="61.249512" lon="14.4792118">
        <ele>429.847</ele>
        <time>2014-12-20T14:46:30Z</time>
      </trkpt>
      <trkpt lat="61.249509" lon="14.4787737">
        <ele>428.405</ele>
        <time>2014-12-20T14:46:36Z</time>
      </trkpt>
      <trkpt lat="61.2495336" lon="14.478453">
        <ele>428.405</ele>
        <time>2014-12-20T14:46:40Z</time>
      </trkpt>
      <trkpt lat="61.2495437" lon="14.4778921">
        <ele>427.924</ele>
        <time>2014-12-20T14:46:46Z</time>
      </trkpt>
      <trkpt lat="61.2495541" lon="14.4774096">
        <ele>428.405</ele>
        <time>2014-12-20T14:46:51Z</time>
      </trkpt>
      <trkpt lat="61.2495534" lon="14.4773321">
        <ele>428.885</ele>
        <time>2014-12-20T14:46:52Z</time>
      </trkpt>
      <trkpt lat="61.2495561" lon="14.4771761">
        <ele>428.885</ele>
        <time>2014-12-20T14:46:54Z</time>
      </trkpt>
      <trkpt lat="61.249584" lon="14.4768039">
        <ele>429.366</ele>
        <time>2014-12-20T14:46:58Z</time>
      </trkpt>
      <trkpt lat="61.2495928" lon="14.4764706">
        <ele>429.847</ele>
        <time>2014-12-20T14:47:02Z</time>
      </trkpt>
      <trkpt lat="61.2495922" lon="14.4760654">
        <ele>431.769</ele>
        <time>2014-12-20T14:47:08Z</time>
      </trkpt>
      <trkpt lat="61.2495722" lon="14.4757496">
        <ele>432.731</ele>
        <time>2014-12-20T14:47:12Z</time>
      </trkpt>
      <trkpt lat="61.2495302" lon="14.4754457">
        <ele>434.653</ele>
        <time>2014-12-20T14:47:16Z</time>
      </trkpt>
      <trkpt lat="61.2494928" lon="14.4751791">
        <ele>435.615</ele>
        <time>2014-12-20T14:47:20Z</time>
      </trkpt>
      <trkpt lat="61.2494534" lon="14.4749344">
        <ele>437.057</ele>
        <time>2014-12-20T14:47:24Z</time>
      </trkpt>
      <trkpt lat="61.2494031" lon="14.4746678">
        <ele>438.018</ele>
        <time>2014-12-20T14:47:28Z</time>
      </trkpt>
      <trkpt lat="61.2493882" lon="14.4744162">
        <ele>438.018</ele>
        <time>2014-12-20T14:47:33Z</time>
      </trkpt>
      <trkpt lat="61.2493757" lon="14.4743565">
        <ele>438.018</ele>
        <time>2014-12-20T14:47:34Z</time>
      </trkpt>
      <trkpt lat="61.2493513" lon="14.4742452">
        <ele>438.018</ele>
        <time>2014-12-20T14:47:36Z</time>
      </trkpt>
      <trkpt lat="61.2493212" lon="14.4740505">
        <ele>438.018</ele>
        <time>2014-12-20T14:47:40Z</time>
      </trkpt>
      <trkpt lat="61.2492867" lon="14.4737992">
        <ele>438.979</ele>
        <time>2014-12-20T14:47:45Z</time>
      </trkpt>
      <trkpt lat="61.2492513" lon="14.4735754">
        <ele>439.94</ele>
        <time>2014-12-20T14:47:49Z</time>
      </trkpt>
      <trkpt lat="61.2492036" lon="14.4732293">
        <ele>440.902</ele>
        <time>2014-12-20T14:47:54Z</time>
      </trkpt>
      <trkpt lat="61.2491393" lon="14.4729018">
        <ele>441.382</ele>
        <time>2014-12-20T14:47:58Z</time>
      </trkpt>
      <trkpt lat="61.2490925" lon="14.4724756">
        <ele>441.863</ele>
        <time>2014-12-20T14:48:03Z</time>
      </trkpt>
      <trkpt lat="61.249087" lon="14.472386">
        <ele>441.863</ele>
        <time>2014-12-20T14:48:04Z</time>
      </trkpt>
      <trkpt lat="61.2490298" lon="14.472081">
        <ele>440.421</ele>
        <time>2014-12-20T14:48:08Z</time>
      </trkpt>
      <trkpt lat="61.2489862" lon="14.4717585">
        <ele>440.421</ele>
        <time>2014-12-20T14:48:12Z</time>
      </trkpt>
      <trkpt lat="61.2489261" lon="14.4714425">
        <ele>439.46</ele>
        <time>2014-12-20T14:48:16Z</time>
      </trkpt>
      <trkpt lat="61.248863" lon="14.4711076">
        <ele>438.018</ele>
        <time>2014-12-20T14:48:21Z</time>
      </trkpt>
      <trkpt lat="61.2488494" lon="14.4710039">
        <ele>438.979</ele>
        <time>2014-12-20T14:48:23Z</time>
      </trkpt>
      <trkpt lat="61.2488174" lon="14.4707324">
        <ele>440.421</ele>
        <time>2014-12-20T14:48:28Z</time>
      </trkpt>
      <trkpt lat="61.2487749" lon="14.4704645">
        <ele>440.902</ele>
        <time>2014-12-20T14:48:33Z</time>
      </trkpt>
      <trkpt lat="61.2487702" lon="14.4703136">
        <ele>441.863</ele>
        <time>2014-12-20T14:48:36Z</time>
      </trkpt>
      <trkpt lat="61.2487505" lon="14.4702218">
        <ele>442.344</ele>
        <time>2014-12-20T14:48:38Z</time>
      </trkpt>
      <trkpt lat="61.2487479" lon="14.4700201">
        <ele>442.824</ele>
        <time>2014-12-20T14:48:42Z</time>
      </trkpt>
      <trkpt lat="61.2487105" lon="14.4698415">
        <ele>443.305</ele>
        <time>2014-12-20T14:48:46Z</time>
      </trkpt>
      <trkpt lat="61.2487013" lon="14.4697013">
        <ele>443.786</ele>
        <time>2014-12-20T14:48:49Z</time>
      </trkpt>
      <trkpt lat="61.2486573" lon="14.4692928">
        <ele>444.747</ele>
        <time>2014-12-20T14:48:56Z</time>
      </trkpt>
      <trkpt lat="61.2486371" lon="14.4691624">
        <ele>445.708</ele>
        <time>2014-12-20T14:48:58Z</time>
      </trkpt>
      <trkpt lat="61.2486241" lon="14.4689822">
        <ele>446.67</ele>
        <time>2014-12-20T14:49:01Z</time>
      </trkpt>
      <trkpt lat="61.2485682" lon="14.4687064">
        <ele>447.15</ele>
        <time>2014-12-20T14:49:27Z</time>
      </trkpt>
      <trkpt lat="61.2485707" lon="14.4687615">
        <ele>447.15</ele>
        <time>2014-12-20T14:49:28Z</time>
      </trkpt>
      <trkpt lat="61.2485754" lon="14.4688075">
        <ele>447.631</ele>
        <time>2014-12-20T14:49:29Z</time>
      </trkpt>
      <trkpt lat="61.248594" lon="14.4691194">
        <ele>448.112</ele>
        <time>2014-12-20T14:49:33Z</time>
      </trkpt>
      <trkpt lat="61.2486328" lon="14.4694282">
        <ele>447.631</ele>
        <time>2014-12-20T14:49:38Z</time>
      </trkpt>
      <trkpt lat="61.24868" lon="14.4697044">
        <ele>447.15</ele>
        <time>2014-12-20T14:49:43Z</time>
      </trkpt>
      <trkpt lat="61.2487261" lon="14.4699616">
        <ele>447.631</ele>
        <time>2014-12-20T14:49:47Z</time>
      </trkpt>
      <trkpt lat="61.2487781" lon="14.4702587">
        <ele>446.189</ele>
        <time>2014-12-20T14:49:51Z</time>
      </trkpt>
      <trkpt lat="61.2488301" lon="14.4706598">
        <ele>443.305</ele>
        <time>2014-12-20T14:49:55Z</time>
      </trkpt>
      <trkpt lat="61.2489782" lon="14.471831">
        <ele>441.382</ele>
        <time>2014-12-20T14:50:04Z</time>
      </trkpt>
      <trkpt lat="61.2490105" lon="14.4722085">
        <ele>442.824</ele>
        <time>2014-12-20T14:50:07Z</time>
      </trkpt>
      <trkpt lat="61.249085" lon="14.4726936">
        <ele>443.305</ele>
        <time>2014-12-20T14:50:12Z</time>
      </trkpt>
      <trkpt lat="61.2491055" lon="14.4727956">
        <ele>444.266</ele>
        <time>2014-12-20T14:50:13Z</time>
      </trkpt>
      <trkpt lat="61.2491551" lon="14.472974">
        <ele>444.747</ele>
        <time>2014-12-20T14:50:15Z</time>
      </trkpt>
      <trkpt lat="61.2492489" lon="14.4733588">
        <ele>442.344</ele>
        <time>2014-12-20T14:50:20Z</time>
      </trkpt>
      <trkpt lat="61.2492617" lon="14.4736194">
        <ele>441.863</ele>
        <time>2014-12-20T14:50:24Z</time>
      </trkpt>
      <trkpt lat="61.249266" lon="14.4736904">
        <ele>442.344</ele>
        <time>2014-12-20T14:50:25Z</time>
      </trkpt>
      <trkpt lat="61.2493089" lon="14.474081">
        <ele>442.824</ele>
        <time>2014-12-20T14:50:30Z</time>
      </trkpt>
      <trkpt lat="61.2493499" lon="14.4744452">
        <ele>442.824</ele>
        <time>2014-12-20T14:50:34Z</time>
      </trkpt>
      <trkpt lat="61.2494088" lon="14.4747325">
        <ele>442.344</ele>
        <time>2014-12-20T14:50:37Z</time>
      </trkpt>
      <trkpt lat="61.2495446" lon="14.4757115">
        <ele>443.305</ele>
        <time>2014-12-20T14:50:45Z</time>
      </trkpt>
      <trkpt lat="61.2495799" lon="14.4761737">
        <ele>442.344</ele>
        <time>2014-12-20T14:50:49Z</time>
      </trkpt>
      <trkpt lat="61.2495955" lon="14.476469">
        <ele>440.902</ele>
        <time>2014-12-20T14:50:52Z</time>
      </trkpt>
      <trkpt lat="61.2495901" lon="14.4769269">
        <ele>437.057</ele>
        <time>2014-12-20T14:50:57Z</time>
      </trkpt>
      <trkpt lat="61.2495846" lon="14.4772567">
        <ele>434.653</ele>
        <time>2014-12-20T14:51:01Z</time>
      </trkpt>
      <trkpt lat="61.2495762" lon="14.4777438">
        <ele>432.25</ele>
        <time>2014-12-20T14:51:07Z</time>
      </trkpt>
      <trkpt lat="61.2495678" lon="14.4778164">
        <ele>432.25</ele>
        <time>2014-12-20T14:51:08Z</time>
      </trkpt>
      <trkpt lat="61.2495545" lon="14.4781908">
        <ele>432.731</ele>
        <time>2014-12-20T14:51:13Z</time>
      </trkpt>
      <trkpt lat="61.2495291" lon="14.4785115">
        <ele>433.692</ele>
        <time>2014-12-20T14:51:18Z</time>
      </trkpt>
      <trkpt lat="61.2495094" lon="14.4787757">
        <ele>435.134</ele>
        <time>2014-12-20T14:51:22Z</time>
      </trkpt>
      <trkpt lat="61.2495057" lon="14.4791575">
        <ele>437.057</ele>
        <time>2014-12-20T14:51:27Z</time>
      </trkpt>
      <trkpt lat="61.2495232" lon="14.4795079">
        <ele>438.018</ele>
        <time>2014-12-20T14:51:31Z</time>
      </trkpt>
      <trkpt lat="61.249524" lon="14.4797572">
        <ele>438.499</ele>
        <time>2014-12-20T14:51:34Z</time>
      </trkpt>
      <trkpt lat="61.249525" lon="14.4800747">
        <ele>438.499</ele>
        <time>2014-12-20T14:51:38Z</time>
      </trkpt>
      <trkpt lat="61.249512" lon="14.4805095">
        <ele>438.018</ele>
        <time>2014-12-20T14:51:44Z</time>
      </trkpt>
      <trkpt lat="61.2495224" lon="14.4806472">
        <ele>438.018</ele>
        <time>2014-12-20T14:51:46Z</time>
      </trkpt>
      <trkpt lat="61.2495217" lon="14.4809647">
        <ele>436.095</ele>
        <time>2014-12-20T14:51:51Z</time>
      </trkpt>
      <trkpt lat="61.2495203" lon="14.4810367">
        <ele>436.095</ele>
        <time>2014-12-20T14:51:52Z</time>
      </trkpt>
      <trkpt lat="61.2495338" lon="14.4813873">
        <ele>436.095</ele>
        <time>2014-12-20T14:51:57Z</time>
      </trkpt>
      <trkpt lat="61.2495425" lon="14.4814492">
        <ele>436.576</ele>
        <time>2014-12-20T14:51:58Z</time>
      </trkpt>
      <trkpt lat="61.2495565" lon="14.4816548">
        <ele>437.057</ele>
        <time>2014-12-20T14:52:01Z</time>
      </trkpt>
      <trkpt lat="61.2495705" lon="14.4819529">
        <ele>437.537</ele>
        <time>2014-12-20T14:52:05Z</time>
      </trkpt>
      <trkpt lat="61.2495717" lon="14.4822604">
        <ele>436.576</ele>
        <time>2014-12-20T14:52:09Z</time>
      </trkpt>
      <trkpt lat="61.2495709" lon="14.4826129">
        <ele>435.134</ele>
        <time>2014-12-20T14:52:13Z</time>
      </trkpt>
      <trkpt lat="61.2495798" lon="14.4827938">
        <ele>435.134</ele>
        <time>2014-12-20T14:52:15Z</time>
      </trkpt>
      <trkpt lat="61.249598" lon="14.4831601">
        <ele>434.653</ele>
        <time>2014-12-20T14:52:19Z</time>
      </trkpt>
      <trkpt lat="61.2496172" lon="14.4834305">
        <ele>435.134</ele>
        <time>2014-12-20T14:52:22Z</time>
      </trkpt>
      <trkpt lat="61.2496273" lon="14.4836005">
        <ele>435.615</ele>
        <time>2014-12-20T14:52:24Z</time>
      </trkpt>
      <trkpt lat="61.2496404" lon="14.4838766">
        <ele>434.173</ele>
        <time>2014-12-20T14:52:27Z</time>
      </trkpt>
      <trkpt lat="61.2496828" lon="14.4842829">
        <ele>435.134</ele>
        <time>2014-12-20T14:52:31Z</time>
      </trkpt>
      <trkpt lat="61.2496954" lon="14.4846093">
        <ele>434.653</ele>
        <time>2014-12-20T14:52:34Z</time>
      </trkpt>
      <trkpt lat="61.2496572" lon="14.4851009">
        <ele>432.731</ele>
        <time>2014-12-20T14:52:39Z</time>
      </trkpt>
      <trkpt lat="61.2496394" lon="14.4851854">
        <ele>431.769</ele>
        <time>2014-12-20T14:52:40Z</time>
      </trkpt>
      <trkpt lat="61.2496172" lon="14.4853674">
        <ele>432.25</ele>
        <time>2014-12-20T14:52:42Z</time>
      </trkpt>
      <trkpt lat="61.2496011" lon="14.4855488">
        <ele>432.25</ele>
        <time>2014-12-20T14:52:44Z</time>
      </trkpt>
      <trkpt lat="61.2495041" lon="14.486038">
        <ele>431.769</ele>
        <time>2014-12-20T14:52:49Z</time>
      </trkpt>
      <trkpt lat="61.2494639" lon="14.4862164">
        <ele>430.808</ele>
        <time>2014-12-20T14:52:51Z</time>
      </trkpt>
      <trkpt lat="61.2493623" lon="14.486681">
        <ele>428.885</ele>
        <time>2014-12-20T14:52:56Z</time>
      </trkpt>
      <trkpt lat="61.2493442" lon="14.4867664">
        <ele>429.366</ele>
        <time>2014-12-20T14:52:57Z</time>
      </trkpt>
      <trkpt lat="61.249284" lon="14.4870363">
        <ele>428.405</ele>
        <time>2014-12-20T14:53:00Z</time>
      </trkpt>
      <trkpt lat="61.2491727" lon="14.4875652">
        <ele>428.885</ele>
        <time>2014-12-20T14:53:06Z</time>
      </trkpt>
      <trkpt lat="61.2491359" lon="14.4877306">
        <ele>430.327</ele>
        <time>2014-12-20T14:53:08Z</time>
      </trkpt>
      <trkpt lat="61.249085" lon="14.4879439">
        <ele>430.327</ele>
        <time>2014-12-20T14:53:11Z</time>
      </trkpt>
      <trkpt lat="61.249053" lon="14.4880775">
        <ele>429.847</ele>
        <time>2014-12-20T14:53:13Z</time>
      </trkpt>
      <trkpt lat="61.2489812" lon="14.4884604">
        <ele>430.808</ele>
        <time>2014-12-20T14:53:18Z</time>
      </trkpt>
      <trkpt lat="61.2489136" lon="14.4888484">
        <ele>431.289</ele>
        <time>2014-12-20T14:53:23Z</time>
      </trkpt>
      <trkpt lat="61.2488658" lon="14.4891291">
        <ele>431.769</ele>
        <time>2014-12-20T14:53:27Z</time>
      </trkpt>
      <trkpt lat="61.2488215" lon="14.489541">
        <ele>429.366</ele>
        <time>2014-12-20T14:53:33Z</time>
      </trkpt>
      <trkpt lat="61.248807" lon="14.489801">
        <ele>427.924</ele>
        <time>2014-12-20T14:53:37Z</time>
      </trkpt>
      <trkpt lat="61.2488115" lon="14.4900829">
        <ele>426.482</ele>
        <time>2014-12-20T14:53:41Z</time>
      </trkpt>
      <trkpt lat="61.2488344" lon="14.4905039">
        <ele>427.924</ele>
        <time>2014-12-20T14:53:46Z</time>
      </trkpt>
      <trkpt lat="61.2488676" lon="14.4908408">
        <ele>428.405</ele>
        <time>2014-12-20T14:53:50Z</time>
      </trkpt>
      <trkpt lat="61.2488806" lon="14.4909273">
        <ele>428.885</ele>
        <time>2014-12-20T14:53:51Z</time>
      </trkpt>
      <trkpt lat="61.2489344" lon="14.4913442">
        <ele>430.808</ele>
        <time>2014-12-20T14:53:56Z</time>
      </trkpt>
      <trkpt lat="61.2489753" lon="14.491869">
        <ele>434.173</ele>
        <time>2014-12-20T14:54:02Z</time>
      </trkpt>
      <trkpt lat="61.2489778" lon="14.4919415">
        <ele>434.653</ele>
        <time>2014-12-20T14:54:03Z</time>
      </trkpt>
      <trkpt lat="61.2489633" lon="14.4923937">
        <ele>434.173</ele>
        <time>2014-12-20T14:54:09Z</time>
      </trkpt>
      <trkpt lat="61.2489549" lon="14.4927583">
        <ele>432.25</ele>
        <time>2014-12-20T14:54:13Z</time>
      </trkpt>
      <trkpt lat="61.2489387" lon="14.4929542">
        <ele>430.327</ele>
        <time>2014-12-20T14:54:15Z</time>
      </trkpt>
      <trkpt lat="61.2488767" lon="14.4933312">
        <ele>429.366</ele>
        <time>2014-12-20T14:54:19Z</time>
      </trkpt>
      <trkpt lat="61.2488356" lon="14.4934927">
        <ele>429.366</ele>
        <time>2014-12-20T14:54:21Z</time>
      </trkpt>
      <trkpt lat="61.2487873" lon="14.4936346">
        <ele>428.405</ele>
        <time>2014-12-20T14:54:23Z</time>
      </trkpt>
      <trkpt lat="61.2486604" lon="14.493862">
        <ele>428.405</ele>
        <time>2014-12-20T14:54:27Z</time>
      </trkpt>
      <trkpt lat="61.2485956" lon="14.4939461">
        <ele>428.885</ele>
        <time>2014-12-20T14:54:29Z</time>
      </trkpt>
      <trkpt lat="61.2484525" lon="14.4942698">
        <ele>427.924</ele>
        <time>2014-12-20T14:54:34Z</time>
      </trkpt>
      <trkpt lat="61.248421" lon="14.4943502">
        <ele>427.924</ele>
        <time>2014-12-20T14:54:35Z</time>
      </trkpt>
      <trkpt lat="61.2482424" lon="14.4946944">
        <ele>426.001</ele>
        <time>2014-12-20T14:54:40Z</time>
      </trkpt>
      <trkpt lat="61.2480191" lon="14.4950396">
        <ele>423.598</ele>
        <time>2014-12-20T14:54:46Z</time>
      </trkpt>
      <trkpt lat="61.2479171" lon="14.4952287">
        <ele>422.637</ele>
        <time>2014-12-20T14:54:49Z</time>
      </trkpt>
      <trkpt lat="61.2477195" lon="14.4955738">
        <ele>422.637</ele>
        <time>2014-12-20T14:54:55Z</time>
      </trkpt>
      <trkpt lat="61.2475287" lon="14.4959392">
        <ele>423.117</ele>
        <time>2014-12-20T14:55:01Z</time>
      </trkpt>
      <trkpt lat="61.2473711" lon="14.4962693">
        <ele>425.04</ele>
        <time>2014-12-20T14:55:07Z</time>
      </trkpt>
      <trkpt lat="61.2472548" lon="14.4965428">
        <ele>427.443</ele>
        <time>2014-12-20T14:55:12Z</time>
      </trkpt>
      <trkpt lat="61.247154" lon="14.4967523">
        <ele>429.366</ele>
        <time>2014-12-20T14:55:16Z</time>
      </trkpt>
      <trkpt lat="61.2470419" lon="14.4969967">
        <ele>430.808</ele>
        <time>2014-12-20T14:55:20Z</time>
      </trkpt>
      <trkpt lat="61.2469373" lon="14.4972852">
        <ele>431.769</ele>
        <time>2014-12-20T14:55:24Z</time>
      </trkpt>
      <trkpt lat="61.2469114" lon="14.4973597">
        <ele>431.769</ele>
        <time>2014-12-20T14:55:25Z</time>
      </trkpt>
      <trkpt lat="61.2467412" lon="14.4977343">
        <ele>430.808</ele>
        <time>2014-12-20T14:55:30Z</time>
      </trkpt>
      <trkpt lat="61.2467035" lon="14.4978013">
        <ele>430.327</ele>
        <time>2014-12-20T14:55:31Z</time>
      </trkpt>
      <trkpt lat="61.2466682" lon="14.4978768">
        <ele>430.327</ele>
        <time>2014-12-20T14:55:32Z</time>
      </trkpt>
      <trkpt lat="61.2464245" lon="14.4985811">
        <ele>431.289</ele>
        <time>2014-12-20T14:55:39Z</time>
      </trkpt>
      <trkpt lat="61.2462663" lon="14.4989572">
        <ele>429.847</ele>
        <time>2014-12-20T14:55:43Z</time>
      </trkpt>
      <trkpt lat="61.2461427" lon="14.4992366">
        <ele>429.366</ele>
        <time>2014-12-20T14:55:46Z</time>
      </trkpt>
      <trkpt lat="61.2459463" lon="14.4995784">
        <ele>427.443</ele>
        <time>2014-12-20T14:55:51Z</time>
      </trkpt>
      <trkpt lat="61.2458709" lon="14.4997075">
        <ele>426.482</ele>
        <time>2014-12-20T14:55:53Z</time>
      </trkpt>
      <trkpt lat="61.2457386" lon="14.4999856">
        <ele>424.559</ele>
        <time>2014-12-20T14:55:57Z</time>
      </trkpt>
      <trkpt lat="61.2456434" lon="14.5001408">
        <ele>424.559</ele>
        <time>2014-12-20T14:56:00Z</time>
      </trkpt>
      <trkpt lat="61.2455513" lon="14.5002921">
        <ele>424.079</ele>
        <time>2014-12-20T14:56:03Z</time>
      </trkpt>
      <trkpt lat="61.2454677" lon="14.5004697">
        <ele>424.079</ele>
        <time>2014-12-20T14:56:06Z</time>
      </trkpt>
      <trkpt lat="61.2453244" lon="14.5007797">
        <ele>425.04</ele>
        <time>2014-12-20T14:56:11Z</time>
      </trkpt>
      <trkpt lat="61.2451733" lon="14.5010455">
        <ele>426.482</ele>
        <time>2014-12-20T14:56:16Z</time>
      </trkpt>
      <trkpt lat="61.2450429" lon="14.5013178">
        <ele>427.924</ele>
        <time>2014-12-20T14:56:21Z</time>
      </trkpt>
      <trkpt lat="61.244914" lon="14.5016121">
        <ele>429.366</ele>
        <time>2014-12-20T14:56:26Z</time>
      </trkpt>
      <trkpt lat="61.2447852" lon="14.5018937">
        <ele>430.808</ele>
        <time>2014-12-20T14:56:31Z</time>
      </trkpt>
      <trkpt lat="61.2446835" lon="14.5021093">
        <ele>432.25</ele>
        <time>2014-12-20T14:56:35Z</time>
      </trkpt>
      <trkpt lat="61.2445811" lon="14.5023197">
        <ele>433.211</ele>
        <time>2014-12-20T14:56:39Z</time>
      </trkpt>
      <trkpt lat="61.2444577" lon="14.502587">
        <ele>434.173</ele>
        <time>2014-12-20T14:56:44Z</time>
      </trkpt>
      <trkpt lat="61.24437" lon="14.5027992">
        <ele>435.615</ele>
        <time>2014-12-20T14:56:48Z</time>
      </trkpt>
      <trkpt lat="61.2442661" lon="14.5030491">
        <ele>435.134</ele>
        <time>2014-12-20T14:56:52Z</time>
      </trkpt>
      <trkpt lat="61.2440893" lon="14.5034216">
        <ele>436.095</ele>
        <time>2014-12-20T14:56:58Z</time>
      </trkpt>
      <trkpt lat="61.2439479" lon="14.5036902">
        <ele>436.576</ele>
        <time>2014-12-20T14:57:02Z</time>
      </trkpt>
      <trkpt lat="61.2437546" lon="14.5040463">
        <ele>435.615</ele>
        <time>2014-12-20T14:57:07Z</time>
      </trkpt>
      <trkpt lat="61.243578" lon="14.5043448">
        <ele>437.057</ele>
        <time>2014-12-20T14:57:13Z</time>
      </trkpt>
      <trkpt lat="61.2435464" lon="14.5043844">
        <ele>436.576</ele>
        <time>2014-12-20T14:57:14Z</time>
      </trkpt>
      <trkpt lat="61.2433576" lon="14.5045228">
        <ele>436.576</ele>
        <time>2014-12-20T14:57:20Z</time>
      </trkpt>
      <trkpt lat="61.2432093" lon="14.5045934">
        <ele>437.537</ele>
        <time>2014-12-20T14:57:25Z</time>
      </trkpt>
      <trkpt lat="61.2430839" lon="14.5046304">
        <ele>438.018</ele>
        <time>2014-12-20T14:57:29Z</time>
      </trkpt>
      <trkpt lat="61.2429246" lon="14.5046612">
        <ele>438.499</ele>
        <time>2014-12-20T14:57:33Z</time>
      </trkpt>
      <trkpt lat="61.2427464" lon="14.5046586">
        <ele>438.499</ele>
        <time>2014-12-20T14:57:37Z</time>
      </trkpt>
      <trkpt lat="61.2425904" lon="14.5046943">
        <ele>438.979</ele>
        <time>2014-12-20T14:57:41Z</time>
      </trkpt>
      <trkpt lat="61.2425131" lon="14.5046967">
        <ele>439.46</ele>
        <time>2014-12-20T14:57:43Z</time>
      </trkpt>
      <trkpt lat="61.2423303" lon="14.5047247">
        <ele>440.902</ele>
        <time>2014-12-20T14:57:48Z</time>
      </trkpt>
      <trkpt lat="61.2421895" lon="14.5047384">
        <ele>441.863</ele>
        <time>2014-12-20T14:57:52Z</time>
      </trkpt>
      <trkpt lat="61.2421507" lon="14.5047355">
        <ele>441.382</ele>
        <time>2014-12-20T14:57:53Z</time>
      </trkpt>
      <trkpt lat="61.2419945" lon="14.5047309">
        <ele>441.863</ele>
        <time>2014-12-20T14:57:58Z</time>
      </trkpt>
      <trkpt lat="61.241795" lon="14.5047275">
        <ele>442.344</ele>
        <time>2014-12-20T14:58:04Z</time>
      </trkpt>
      <trkpt lat="61.241628" lon="14.504733">
        <ele>442.824</ele>
        <time>2014-12-20T14:58:09Z</time>
      </trkpt>
      <trkpt lat="61.2414579" lon="14.5047549">
        <ele>441.863</ele>
        <time>2014-12-20T14:58:14Z</time>
      </trkpt>
      <trkpt lat="61.241314" lon="14.5048046">
        <ele>440.421</ele>
        <time>2014-12-20T14:58:18Z</time>
      </trkpt>
      <trkpt lat="61.2411144" lon="14.5048708">
        <ele>438.979</ele>
        <time>2014-12-20T14:58:23Z</time>
      </trkpt>
      <trkpt lat="61.2409449" lon="14.5049363">
        <ele>438.018</ele>
        <time>2014-12-20T14:58:27Z</time>
      </trkpt>
      <trkpt lat="61.2407947" lon="14.5049745">
        <ele>438.018</ele>
        <time>2014-12-20T14:58:31Z</time>
      </trkpt>
      <trkpt lat="61.2405716" lon="14.505073">
        <ele>438.979</ele>
        <time>2014-12-20T14:58:37Z</time>
      </trkpt>
      <trkpt lat="61.240393" lon="14.5051735">
        <ele>438.979</ele>
        <time>2014-12-20T14:58:42Z</time>
      </trkpt>
      <trkpt lat="61.2402695" lon="14.5052592">
        <ele>438.979</ele>
        <time>2014-12-20T14:58:46Z</time>
      </trkpt>
      <trkpt lat="61.2400702" lon="14.5053874">
        <ele>439.46</ele>
        <time>2014-12-20T14:58:52Z</time>
      </trkpt>
      <trkpt lat="61.2399164" lon="14.5055393">
        <ele>439.46</ele>
        <time>2014-12-20T14:58:57Z</time>
      </trkpt>
      <trkpt lat="61.2397974" lon="14.5056967">
        <ele>439.94</ele>
        <time>2014-12-20T14:59:01Z</time>
      </trkpt>
      <trkpt lat="61.2396102" lon="14.5059262">
        <ele>440.902</ele>
        <time>2014-12-20T14:59:07Z</time>
      </trkpt>
      <trkpt lat="61.2394401" lon="14.506125">
        <ele>441.382</ele>
        <time>2014-12-20T14:59:12Z</time>
      </trkpt>
      <trkpt lat="61.2393334" lon="14.5062839">
        <ele>442.344</ele>
        <time>2014-12-20T14:59:16Z</time>
      </trkpt>
      <trkpt lat="61.2392539" lon="14.506426">
        <ele>441.863</ele>
        <time>2014-12-20T14:59:19Z</time>
      </trkpt>
      <trkpt lat="61.2392277" lon="14.5064769">
        <ele>441.863</ele>
        <time>2014-12-20T14:59:20Z</time>
      </trkpt>
      <trkpt lat="61.2391205" lon="14.5066757">
        <ele>441.863</ele>
        <time>2014-12-20T14:59:24Z</time>
      </trkpt>
      <trkpt lat="61.2390286" lon="14.506863">
        <ele>441.382</ele>
        <time>2014-12-20T14:59:28Z</time>
      </trkpt>
      <trkpt lat="61.2389648" lon="14.5069954">
        <ele>441.863</ele>
        <time>2014-12-20T14:59:31Z</time>
      </trkpt>
      <trkpt lat="61.2388639" lon="14.5071783">
        <ele>440.421</ele>
        <time>2014-12-20T14:59:35Z</time>
      </trkpt>
      <trkpt lat="61.2387213" lon="14.5074373">
        <ele>439.46</ele>
        <time>2014-12-20T14:59:41Z</time>
      </trkpt>
      <trkpt lat="61.2386326" lon="14.5075854">
        <ele>438.979</ele>
        <time>2014-12-20T14:59:45Z</time>
      </trkpt>
      <trkpt lat="61.2385659" lon="14.5077376">
        <ele>438.499</ele>
        <time>2014-12-20T14:59:48Z</time>
      </trkpt>
      <trkpt lat="61.2384415" lon="14.5080167">
        <ele>438.499</ele>
        <time>2014-12-20T14:59:53Z</time>
      </trkpt>
      <trkpt lat="61.2383308" lon="14.5083333">
        <ele>438.979</ele>
        <time>2014-12-20T14:59:57Z</time>
      </trkpt>
      <trkpt lat="61.238249" lon="14.5085777">
        <ele>438.499</ele>
        <time>2014-12-20T15:00:00Z</time>
      </trkpt>
      <trkpt lat="61.2381037" lon="14.5089986">
        <ele>437.057</ele>
        <time>2014-12-20T15:00:05Z</time>
      </trkpt>
      <trkpt lat="61.2379213" lon="14.5095738">
        <ele>433.692</ele>
        <time>2014-12-20T15:00:11Z</time>
      </trkpt>
      <trkpt lat="61.2377801" lon="14.5100542">
        <ele>431.769</ele>
        <time>2014-12-20T15:00:16Z</time>
      </trkpt>
      <trkpt lat="61.2376447" lon="14.5104858">
        <ele>431.769</ele>
        <time>2014-12-20T15:00:20Z</time>
      </trkpt>
      <trkpt lat="61.2373555" lon="14.5111083">
        <ele>428.885</ele>
        <time>2014-12-20T15:00:27Z</time>
      </trkpt>
      <trkpt lat="61.2371413" lon="14.5115914">
        <ele>429.847</ele>
        <time>2014-12-20T15:00:33Z</time>
      </trkpt>
      <trkpt lat="61.2369942" lon="14.511982">
        <ele>431.289</ele>
        <time>2014-12-20T15:00:38Z</time>
      </trkpt>
      <trkpt lat="61.2368902" lon="14.5123049">
        <ele>432.25</ele>
        <time>2014-12-20T15:00:42Z</time>
      </trkpt>
      <trkpt lat="61.2367647" lon="14.5126842">
        <ele>433.692</ele>
        <time>2014-12-20T15:00:48Z</time>
      </trkpt>
      <trkpt lat="61.2366136" lon="14.513112">
        <ele>434.653</ele>
        <time>2014-12-20T15:00:55Z</time>
      </trkpt>
      <trkpt lat="61.2365126" lon="14.513393">
        <ele>434.653</ele>
        <time>2014-12-20T15:00:59Z</time>
      </trkpt>
      <trkpt lat="61.2364007" lon="14.5136614">
        <ele>433.211</ele>
        <time>2014-12-20T15:01:03Z</time>
      </trkpt>
      <trkpt lat="61.2363478" lon="14.5138002">
        <ele>432.25</ele>
        <time>2014-12-20T15:01:05Z</time>
      </trkpt>
      <trkpt lat="61.2362364" lon="14.5140729">
        <ele>430.808</ele>
        <time>2014-12-20T15:01:09Z</time>
      </trkpt>
      <trkpt lat="61.2360889" lon="14.5144389">
        <ele>429.847</ele>
        <time>2014-12-20T15:01:15Z</time>
      </trkpt>
      <trkpt lat="61.2359695" lon="14.5147337">
        <ele>428.885</ele>
        <time>2014-12-20T15:01:20Z</time>
      </trkpt>
      <trkpt lat="61.2358582" lon="14.5150327">
        <ele>428.885</ele>
        <time>2014-12-20T15:01:25Z</time>
      </trkpt>
      <trkpt lat="61.2357442" lon="14.5153613">
        <ele>428.885</ele>
        <time>2014-12-20T15:01:30Z</time>
      </trkpt>
      <trkpt lat="61.2356173" lon="14.5156963">
        <ele>429.366</ele>
        <time>2014-12-20T15:01:35Z</time>
      </trkpt>
      <trkpt lat="61.2355274" lon="14.515961">
        <ele>429.847</ele>
        <time>2014-12-20T15:01:39Z</time>
      </trkpt>
      <trkpt lat="61.2353708" lon="14.5164355">
        <ele>431.289</ele>
        <time>2014-12-20T15:01:46Z</time>
      </trkpt>
      <trkpt lat="61.2353455" lon="14.5165055">
        <ele>431.289</ele>
        <time>2014-12-20T15:01:47Z</time>
      </trkpt>
      <trkpt lat="61.2352565" lon="14.5167221">
        <ele>430.327</ele>
        <time>2014-12-20T15:01:50Z</time>
      </trkpt>
      <trkpt lat="61.2350927" lon="14.5172213">
        <ele>428.885</ele>
        <time>2014-12-20T15:01:56Z</time>
      </trkpt>
      <trkpt lat="61.2350352" lon="14.5174048">
        <ele>428.405</ele>
        <time>2014-12-20T15:01:58Z</time>
      </trkpt>
      <trkpt lat="61.2348622" lon="14.5177756">
        <ele>426.482</ele>
        <time>2014-12-20T15:02:03Z</time>
      </trkpt>
      <trkpt lat="61.234789" lon="14.5179404">
        <ele>425.521</ele>
        <time>2014-12-20T15:02:05Z</time>
      </trkpt>
      <trkpt lat="61.234684" lon="14.5182646">
        <ele>425.04</ele>
        <time>2014-12-20T15:02:09Z</time>
      </trkpt>
      <trkpt lat="61.2345398" lon="14.5186221">
        <ele>426.001</ele>
        <time>2014-12-20T15:02:15Z</time>
      </trkpt>
      <trkpt lat="61.2344517" lon="14.5188831">
        <ele>426.963</ele>
        <time>2014-12-20T15:02:20Z</time>
      </trkpt>
      <trkpt lat="61.2344027" lon="14.5190359">
        <ele>427.443</ele>
        <time>2014-12-20T15:02:23Z</time>
      </trkpt>
      <trkpt lat="61.2343596" lon="14.5191816">
        <ele>428.885</ele>
        <time>2014-12-20T15:02:26Z</time>
      </trkpt>
      <trkpt lat="61.2342746" lon="14.5193783">
        <ele>428.885</ele>
        <time>2014-12-20T15:02:31Z</time>
      </trkpt>
      <trkpt lat="61.2341153" lon="14.5192887">
        <ele>428.885</ele>
        <time>2014-12-20T15:02:36Z</time>
      </trkpt>
      <trkpt lat="61.2340743" lon="14.5192399">
        <ele>428.885</ele>
        <time>2014-12-20T15:02:37Z</time>
      </trkpt>
      <trkpt lat="61.2338204" lon="14.5189577">
        <ele>426.482</ele>
        <time>2014-12-20T15:02:42Z</time>
      </trkpt>
      <trkpt lat="61.233754" lon="14.5189089">
        <ele>426.482</ele>
        <time>2014-12-20T15:02:43Z</time>
      </trkpt>
      <trkpt lat="61.2335025" lon="14.5188682">
        <ele>426.001</ele>
        <time>2014-12-20T15:02:47Z</time>
      </trkpt>
      <trkpt lat="61.2333792" lon="14.51892">
        <ele>425.521</ele>
        <time>2014-12-20T15:02:49Z</time>
      </trkpt>
      <trkpt lat="61.2332744" lon="14.5189915">
        <ele>425.521</ele>
        <time>2014-12-20T15:02:51Z</time>
      </trkpt>
      <trkpt lat="61.2330246" lon="14.5189774">
        <ele>425.521</ele>
        <time>2014-12-20T15:02:56Z</time>
      </trkpt>
      <trkpt lat="61.2329263" lon="14.5188006">
        <ele>427.443</ele>
        <time>2014-12-20T15:03:00Z</time>
      </trkpt>
      <trkpt lat="61.2328" lon="14.5185764">
        <ele>429.366</ele>
        <time>2014-12-20T15:03:05Z</time>
      </trkpt>
      <trkpt lat="61.2326459" lon="14.5183714">
        <ele>431.289</ele>
        <time>2014-12-20T15:03:11Z</time>
      </trkpt>
      <trkpt lat="61.2325428" lon="14.5182106">
        <ele>432.25</ele>
        <time>2014-12-20T15:03:15Z</time>
      </trkpt>
      <trkpt lat="61.2324026" lon="14.5179487">
        <ele>433.692</ele>
        <time>2014-12-20T15:03:20Z</time>
      </trkpt>
      <trkpt lat="61.2323182" lon="14.5177526">
        <ele>434.173</ele>
        <time>2014-12-20T15:03:24Z</time>
      </trkpt>
      <trkpt lat="61.2322426" lon="14.5175046">
        <ele>436.095</ele>
        <time>2014-12-20T15:03:29Z</time>
      </trkpt>
      <trkpt lat="61.2321943" lon="14.5172467">
        <ele>436.095</ele>
        <time>2014-12-20T15:03:34Z</time>
      </trkpt>
      <trkpt lat="61.2321567" lon="14.5171167">
        <ele>437.057</ele>
        <time>2014-12-20T15:03:37Z</time>
      </trkpt>
      <trkpt lat="61.2321613" lon="14.5168892">
        <ele>439.94</ele>
        <time>2014-12-20T15:03:41Z</time>
      </trkpt>
      <trkpt lat="61.2321093" lon="14.5167146">
        <ele>442.824</ele>
        <time>2014-12-20T15:03:45Z</time>
      </trkpt>
      <trkpt lat="61.2320971" lon="14.5166759">
        <ele>443.786</ele>
        <time>2014-12-20T15:03:46Z</time>
      </trkpt>
      <trkpt lat="61.2320598" lon="14.5164514">
        <ele>445.708</ele>
        <time>2014-12-20T15:03:52Z</time>
      </trkpt>
      <trkpt lat="61.2320372" lon="14.5162747">
        <ele>444.747</ele>
        <time>2014-12-20T15:03:56Z</time>
      </trkpt>
      <trkpt lat="61.2320176" lon="14.5160728">
        <ele>444.266</ele>
        <time>2014-12-20T15:04:01Z</time>
      </trkpt>
      <trkpt lat="61.2319604" lon="14.5159306">
        <ele>445.228</ele>
        <time>2014-12-20T15:04:04Z</time>
      </trkpt>
      <trkpt lat="61.2319292" lon="14.5157581">
        <ele>444.266</ele>
        <time>2014-12-20T15:04:07Z</time>
      </trkpt>
      <trkpt lat="61.2319135" lon="14.5155672">
        <ele>443.786</ele>
        <time>2014-12-20T15:04:11Z</time>
      </trkpt>
      <trkpt lat="61.2318608" lon="14.5153887">
        <ele>443.786</ele>
        <time>2014-12-20T15:04:17Z</time>
      </trkpt>
      <trkpt lat="61.231778" lon="14.5152067">
        <ele>444.747</ele>
        <time>2014-12-20T15:04:23Z</time>
      </trkpt>
      <trkpt lat="61.2317121" lon="14.5150716">
        <ele>446.189</ele>
        <time>2014-12-20T15:04:28Z</time>
      </trkpt>
      <trkpt lat="61.2316923" lon="14.5149893">
        <ele>446.67</ele>
        <time>2014-12-20T15:04:30Z</time>
      </trkpt>
      <trkpt lat="61.2316951" lon="14.5147611">
        <ele>447.15</ele>
        <time>2014-12-20T15:04:34Z</time>
      </trkpt>
      <trkpt lat="61.2316929" lon="14.5147121">
        <ele>446.67</ele>
        <time>2014-12-20T15:04:35Z</time>
      </trkpt>
      <trkpt lat="61.2317136" lon="14.5142971">
        <ele>446.67</ele>
        <time>2014-12-20T15:04:41Z</time>
      </trkpt>
      <trkpt lat="61.2317157" lon="14.514015">
        <ele>444.747</ele>
        <time>2014-12-20T15:04:45Z</time>
      </trkpt>
      <trkpt lat="61.2317182" lon="14.5139494">
        <ele>444.266</ele>
        <time>2014-12-20T15:04:46Z</time>
      </trkpt>
      <trkpt lat="61.23172" lon="14.5137289">
        <ele>443.305</ele>
        <time>2014-12-20T15:04:50Z</time>
      </trkpt>
      <trkpt lat="61.2317365" lon="14.5135305">
        <ele>441.863</ele>
        <time>2014-12-20T15:04:54Z</time>
      </trkpt>
      <trkpt lat="61.2317437" lon="14.513313">
        <ele>441.863</ele>
        <time>2014-12-20T15:04:58Z</time>
      </trkpt>
      <trkpt lat="61.2317343" lon="14.5131995">
        <ele>441.863</ele>
        <time>2014-12-20T15:05:00Z</time>
      </trkpt>
      <trkpt lat="61.2317487" lon="14.5129097">
        <ele>443.305</ele>
        <time>2014-12-20T15:05:06Z</time>
      </trkpt>
      <trkpt lat="61.2317278" lon="14.5127222">
        <ele>442.824</ele>
        <time>2014-12-20T15:05:09Z</time>
      </trkpt>
      <trkpt lat="61.2316995" lon="14.5123256">
        <ele>443.786</ele>
        <time>2014-12-20T15:05:15Z</time>
      </trkpt>
      <trkpt lat="61.2316801" lon="14.5121194">
        <ele>444.266</ele>
        <time>2014-12-20T15:05:18Z</time>
      </trkpt>
      <trkpt lat="61.2316702" lon="14.5118526">
        <ele>443.786</ele>
        <time>2014-12-20T15:05:22Z</time>
      </trkpt>
      <trkpt lat="61.2316438" lon="14.5116812">
        <ele>443.786</ele>
        <time>2014-12-20T15:05:25Z</time>
      </trkpt>
      <trkpt lat="61.2316443" lon="14.5113969">
        <ele>444.747</ele>
        <time>2014-12-20T15:05:30Z</time>
      </trkpt>
      <trkpt lat="61.2316441" lon="14.5112107">
        <ele>445.228</ele>
        <time>2014-12-20T15:05:33Z</time>
      </trkpt>
      <trkpt lat="61.2316173" lon="14.5108455">
        <ele>446.189</ele>
        <time>2014-12-20T15:05:39Z</time>
      </trkpt>
      <trkpt lat="61.2315977" lon="14.510515">
        <ele>447.15</ele>
        <time>2014-12-20T15:05:45Z</time>
      </trkpt>
      <trkpt lat="61.231578" lon="14.5102567">
        <ele>447.631</ele>
        <time>2014-12-20T15:05:50Z</time>
      </trkpt>
      <trkpt lat="61.2315738" lon="14.5100369">
        <ele>447.631</ele>
        <time>2014-12-20T15:05:53Z</time>
      </trkpt>
      <trkpt lat="61.2315369" lon="14.5097071">
        <ele>448.592</ele>
        <time>2014-12-20T15:05:58Z</time>
      </trkpt>
      <trkpt lat="61.2315242" lon="14.509565">
        <ele>448.592</ele>
        <time>2014-12-20T15:06:00Z</time>
      </trkpt>
      <trkpt lat="61.2314869" lon="14.5093578">
        <ele>447.631</ele>
        <time>2014-12-20T15:06:03Z</time>
      </trkpt>
      <trkpt lat="61.2314657" lon="14.5092196">
        <ele>448.112</ele>
        <time>2014-12-20T15:06:06Z</time>
      </trkpt>
      <trkpt lat="61.2314428" lon="14.5090905">
        <ele>449.073</ele>
        <time>2014-12-20T15:06:08Z</time>
      </trkpt>
      <trkpt lat="61.2313455" lon="14.5087848">
        <ele>452.438</ele>
        <time>2014-12-20T15:06:15Z</time>
      </trkpt>
      <trkpt lat="61.2313029" lon="14.5086602">
        <ele>453.399</ele>
        <time>2014-12-20T15:06:18Z</time>
      </trkpt>
      <trkpt lat="61.2312656" lon="14.5085246">
        <ele>454.841</ele>
        <time>2014-12-20T15:06:21Z</time>
      </trkpt>
      <trkpt lat="61.2311879" lon="14.5082188">
        <ele>456.283</ele>
        <time>2014-12-20T15:06:26Z</time>
      </trkpt>
      <trkpt lat="61.2310746" lon="14.5078144">
        <ele>455.802</ele>
        <time>2014-12-20T15:06:31Z</time>
      </trkpt>
      <trkpt lat="61.2310196" lon="14.5076411">
        <ele>454.36</ele>
        <time>2014-12-20T15:06:33Z</time>
      </trkpt>
      <trkpt lat="61.2309403" lon="14.5072926">
        <ele>451.957</ele>
        <time>2014-12-20T15:06:38Z</time>
      </trkpt>
      <trkpt lat="61.2309297" lon="14.5072102">
        <ele>451.476</ele>
        <time>2014-12-20T15:06:39Z</time>
      </trkpt>
      <trkpt lat="61.2309096" lon="14.5070702">
        <ele>450.515</ele>
        <time>2014-12-20T15:06:41Z</time>
      </trkpt>
      <trkpt lat="61.2308379" lon="14.5067271">
        <ele>450.034</ele>
        <time>2014-12-20T15:06:47Z</time>
      </trkpt>
      <trkpt lat="61.2308103" lon="14.5065462">
        <ele>450.034</ele>
        <time>2014-12-20T15:06:50Z</time>
      </trkpt>
      <trkpt lat="61.2307977" lon="14.5064306">
        <ele>450.034</ele>
        <time>2014-12-20T15:06:52Z</time>
      </trkpt>
      <trkpt lat="61.2307518" lon="14.5062322">
        <ele>452.918</ele>
        <time>2014-12-20T15:06:56Z</time>
      </trkpt>
      <trkpt lat="61.2307231" lon="14.5060059">
        <ele>454.36</ele>
        <time>2014-12-20T15:07:00Z</time>
      </trkpt>
      <trkpt lat="61.2306705" lon="14.5057688">
        <ele>456.764</ele>
        <time>2014-12-20T15:07:04Z</time>
      </trkpt>
      <trkpt lat="61.2306578" lon="14.5057215">
        <ele>456.283</ele>
        <time>2014-12-20T15:07:05Z</time>
      </trkpt>
      <trkpt lat="61.2306363" lon="14.5056069">
        <ele>456.764</ele>
        <time>2014-12-20T15:07:07Z</time>
      </trkpt>
      <trkpt lat="61.2305918" lon="14.5054035">
        <ele>458.206</ele>
        <time>2014-12-20T15:07:11Z</time>
      </trkpt>
      <trkpt lat="61.2305838" lon="14.5053422">
        <ele>458.206</ele>
        <time>2014-12-20T15:07:12Z</time>
      </trkpt>
      <trkpt lat="61.2305222" lon="14.5050206">
        <ele>458.686</ele>
        <time>2014-12-20T15:07:17Z</time>
      </trkpt>
      <trkpt lat="61.2304435" lon="14.5047242">
        <ele>458.686</ele>
        <time>2014-12-20T15:07:22Z</time>
      </trkpt>
      <trkpt lat="61.2303234" lon="14.5045542">
        <ele>455.322</ele>
        <time>2014-12-20T15:08:59Z</time>
      </trkpt>
      <trkpt lat="61.2303227" lon="14.5045543">
        <ele>455.322</ele>
        <time>2014-12-20T15:09:00Z</time>
      </trkpt>
      <trkpt lat="61.2303109" lon="14.5045757">
        <ele>455.322</ele>
        <time>2014-12-20T15:09:01Z</time>
      </trkpt>
      <trkpt lat="61.2302198" lon="14.5047295">
        <ele>455.802</ele>
        <time>2014-12-20T15:09:06Z</time>
      </trkpt>
      <trkpt lat="61.2301964" lon="14.5047488">
        <ele>455.322</ele>
        <time>2014-12-20T15:09:07Z</time>
      </trkpt>
      <trkpt lat="61.2299841" lon="14.5048338">
        <ele>455.802</ele>
        <time>2014-12-20T15:09:13Z</time>
      </trkpt>
      <trkpt lat="61.229842" lon="14.5048863">
        <ele>455.322</ele>
        <time>2014-12-20T15:09:17Z</time>
      </trkpt>
      <trkpt lat="61.2296772" lon="14.5049269">
        <ele>454.36</ele>
        <time>2014-12-20T15:09:21Z</time>
      </trkpt>
      <trkpt lat="61.2295083" lon="14.5049966">
        <ele>452.438</ele>
        <time>2014-12-20T15:09:25Z</time>
      </trkpt>
      <trkpt lat="61.2294328" lon="14.5050585">
        <ele>451.476</ele>
        <time>2014-12-20T15:09:27Z</time>
      </trkpt>
      <trkpt lat="61.2292493" lon="14.505143">
        <ele>450.515</ele>
        <time>2014-12-20T15:09:31Z</time>
      </trkpt>
      <trkpt lat="61.2289885" lon="14.5053292">
        <ele>450.515</ele>
        <time>2014-12-20T15:09:37Z</time>
      </trkpt>
      <trkpt lat="61.2289057" lon="14.5053968">
        <ele>450.515</ele>
        <time>2014-12-20T15:09:39Z</time>
      </trkpt>
      <trkpt lat="61.2287552" lon="14.5055178">
        <ele>449.073</ele>
        <time>2014-12-20T15:09:43Z</time>
      </trkpt>
      <trkpt lat="61.2286884" lon="14.5055633">
        <ele>449.073</ele>
        <time>2014-12-20T15:09:45Z</time>
      </trkpt>
      <trkpt lat="61.2285645" lon="14.5055941">
        <ele>449.073</ele>
        <time>2014-12-20T15:09:48Z</time>
      </trkpt>
      <trkpt lat="61.2283309" lon="14.5057143">
        <ele>448.112</ele>
        <time>2014-12-20T15:09:54Z</time>
      </trkpt>
      <trkpt lat="61.2281836" lon="14.5057893">
        <ele>448.592</ele>
        <time>2014-12-20T15:09:58Z</time>
      </trkpt>
      <trkpt lat="61.2280513" lon="14.5059039">
        <ele>448.592</ele>
        <time>2014-12-20T15:10:02Z</time>
      </trkpt>
      <trkpt lat="61.2278362" lon="14.5059725">
        <ele>447.15</ele>
        <time>2014-12-20T15:10:07Z</time>
      </trkpt>
      <trkpt lat="61.2276827" lon="14.5060472">
        <ele>447.15</ele>
        <time>2014-12-20T15:10:11Z</time>
      </trkpt>
      <trkpt lat="61.2275024" lon="14.5061542">
        <ele>449.073</ele>
        <time>2014-12-20T15:10:16Z</time>
      </trkpt>
      <trkpt lat="61.2273743" lon="14.5062691">
        <ele>449.554</ele>
        <time>2014-12-20T15:10:20Z</time>
      </trkpt>
      <trkpt lat="61.2272857" lon="14.5064006">
        <ele>450.515</ele>
        <time>2014-12-20T15:10:23Z</time>
      </trkpt>
      <trkpt lat="61.2272106" lon="14.5064992">
        <ele>450.996</ele>
        <time>2014-12-20T15:10:25Z</time>
      </trkpt>
      <trkpt lat="61.2270547" lon="14.5067783">
        <ele>453.88</ele>
        <time>2014-12-20T15:10:30Z</time>
      </trkpt>
      <trkpt lat="61.2269905" lon="14.5069">
        <ele>454.36</ele>
        <time>2014-12-20T15:10:32Z</time>
      </trkpt>
      <trkpt lat="61.2269098" lon="14.5070946">
        <ele>455.802</ele>
        <time>2014-12-20T15:10:35Z</time>
      </trkpt>
      <trkpt lat="61.2267983" lon="14.5074321">
        <ele>456.283</ele>
        <time>2014-12-20T15:10:40Z</time>
      </trkpt>
      <trkpt lat="61.2267152" lon="14.5076831">
        <ele>456.764</ele>
        <time>2014-12-20T15:10:44Z</time>
      </trkpt>
      <trkpt lat="61.226604" lon="14.5079837">
        <ele>458.206</ele>
        <time>2014-12-20T15:10:49Z</time>
      </trkpt>
      <trkpt lat="61.22655" lon="14.5082551">
        <ele>459.648</ele>
        <time>2014-12-20T15:10:53Z</time>
      </trkpt>
      <trkpt lat="61.2264599" lon="14.5085284">
        <ele>460.128</ele>
        <time>2014-12-20T15:10:57Z</time>
      </trkpt>
      <trkpt lat="61.2263519" lon="14.5087783">
        <ele>458.206</ele>
        <time>2014-12-20T15:11:01Z</time>
      </trkpt>
      <trkpt lat="61.226263" lon="14.5090461">
        <ele>456.283</ele>
        <time>2014-12-20T15:11:05Z</time>
      </trkpt>
      <trkpt lat="61.2261875" lon="14.5092598">
        <ele>455.322</ele>
        <time>2014-12-20T15:11:08Z</time>
      </trkpt>
      <trkpt lat="61.2260958" lon="14.5094546">
        <ele>453.88</ele>
        <time>2014-12-20T15:11:11Z</time>
      </trkpt>
      <trkpt lat="61.2260009" lon="14.50972">
        <ele>453.399</ele>
        <time>2014-12-20T15:11:15Z</time>
      </trkpt>
      <trkpt lat="61.2259269" lon="14.5099121">
        <ele>453.399</ele>
        <time>2014-12-20T15:11:18Z</time>
      </trkpt>
      <trkpt lat="61.2258406" lon="14.5102515">
        <ele>454.841</ele>
        <time>2014-12-20T15:11:23Z</time>
      </trkpt>
      <trkpt lat="61.2257555" lon="14.510553">
        <ele>456.764</ele>
        <time>2014-12-20T15:11:27Z</time>
      </trkpt>
      <trkpt lat="61.2256737" lon="14.5107617">
        <ele>456.764</ele>
        <time>2014-12-20T15:11:30Z</time>
      </trkpt>
      <trkpt lat="61.2255307" lon="14.5110595">
        <ele>456.283</ele>
        <time>2014-12-20T15:11:35Z</time>
      </trkpt>
      <trkpt lat="61.2255011" lon="14.5111258">
        <ele>456.764</ele>
        <time>2014-12-20T15:11:36Z</time>
      </trkpt>
      <trkpt lat="61.225384" lon="14.5114474">
        <ele>455.322</ele>
        <time>2014-12-20T15:11:41Z</time>
      </trkpt>
      <trkpt lat="61.2251991" lon="14.5118009">
        <ele>453.399</ele>
        <time>2014-12-20T15:11:47Z</time>
      </trkpt>
      <trkpt lat="61.2251301" lon="14.5118978">
        <ele>452.438</ele>
        <time>2014-12-20T15:11:49Z</time>
      </trkpt>
      <trkpt lat="61.225003" lon="14.5120884">
        <ele>450.515</ele>
        <time>2014-12-20T15:11:53Z</time>
      </trkpt>
      <trkpt lat="61.2248294" lon="14.5123002">
        <ele>448.592</ele>
        <time>2014-12-20T15:11:58Z</time>
      </trkpt>
      <trkpt lat="61.2247909" lon="14.5123358">
        <ele>448.592</ele>
        <time>2014-12-20T15:11:59Z</time>
      </trkpt>
      <trkpt lat="61.2246407" lon="14.5125359">
        <ele>446.67</ele>
        <time>2014-12-20T15:12:04Z</time>
      </trkpt>
      <trkpt lat="61.2244647" lon="14.5127549">
        <ele>445.708</ele>
        <time>2014-12-20T15:12:10Z</time>
      </trkpt>
      <trkpt lat="61.2243403" lon="14.5128852">
        <ele>445.228</ele>
        <time>2014-12-20T15:12:14Z</time>
      </trkpt>
      <trkpt lat="61.2241853" lon="14.5131173">
        <ele>444.747</ele>
        <time>2014-12-20T15:12:19Z</time>
      </trkpt>
      <trkpt lat="61.2240176" lon="14.5133767">
        <ele>444.266</ele>
        <time>2014-12-20T15:12:24Z</time>
      </trkpt>
      <trkpt lat="61.2239232" lon="14.5135181">
        <ele>443.786</ele>
        <time>2014-12-20T15:12:27Z</time>
      </trkpt>
      <trkpt lat="61.223797" lon="14.513629">
        <ele>445.228</ele>
        <time>2014-12-20T15:12:31Z</time>
      </trkpt>
      <trkpt lat="61.2236823" lon="14.5137729">
        <ele>447.631</ele>
        <time>2014-12-20T15:12:35Z</time>
      </trkpt>
      <trkpt lat="61.2235524" lon="14.5139371">
        <ele>449.554</ele>
        <time>2014-12-20T15:12:39Z</time>
      </trkpt>
      <trkpt lat="61.2234153" lon="14.5141034">
        <ele>450.996</ele>
        <time>2014-12-20T15:12:43Z</time>
      </trkpt>
      <trkpt lat="61.2232581" lon="14.5142563">
        <ele>453.399</ele>
        <time>2014-12-20T15:12:47Z</time>
      </trkpt>
      <trkpt lat="61.2231743" lon="14.5143496">
        <ele>454.36</ele>
        <time>2014-12-20T15:12:49Z</time>
      </trkpt>
      <trkpt lat="61.2230356" lon="14.5144811">
        <ele>455.802</ele>
        <time>2014-12-20T15:12:53Z</time>
      </trkpt>
      <trkpt lat="61.2228759" lon="14.5146702">
        <ele>456.764</ele>
        <time>2014-12-20T15:12:58Z</time>
      </trkpt>
      <trkpt lat="61.222766" lon="14.5148115">
        <ele>457.725</ele>
        <time>2014-12-20T15:13:02Z</time>
      </trkpt>
      <trkpt lat="61.2225634" lon="14.5150211">
        <ele>456.283</ele>
        <time>2014-12-20T15:13:07Z</time>
      </trkpt>
      <trkpt lat="61.2224398" lon="14.51513">
        <ele>455.322</ele>
        <time>2014-12-20T15:13:10Z</time>
      </trkpt>
      <trkpt lat="61.2222372" lon="14.5152104">
        <ele>453.88</ele>
        <time>2014-12-20T15:13:15Z</time>
      </trkpt>
      <trkpt lat="61.2221994" lon="14.5152152">
        <ele>453.88</ele>
        <time>2014-12-20T15:13:16Z</time>
      </trkpt>
      <trkpt lat="61.2221373" lon="14.5152259">
        <ele>453.399</ele>
        <time>2014-12-20T15:13:18Z</time>
      </trkpt>
      <trkpt lat="61.2219356" lon="14.5152741">
        <ele>452.438</ele>
        <time>2014-12-20T15:13:24Z</time>
      </trkpt>
      <trkpt lat="61.2217462" lon="14.5152819">
        <ele>451.476</ele>
        <time>2014-12-20T15:13:30Z</time>
      </trkpt>
      <trkpt lat="61.2215955" lon="14.5153362">
        <ele>451.476</ele>
        <time>2014-12-20T15:13:35Z</time>
      </trkpt>
      <trkpt lat="61.2214451" lon="14.5153988">
        <ele>452.438</ele>
        <time>2014-12-20T15:13:40Z</time>
      </trkpt>
      <trkpt lat="61.221326" lon="14.5154367">
        <ele>453.399</ele>
        <time>2014-12-20T15:13:44Z</time>
      </trkpt>
      <trkpt lat="61.2211603" lon="14.5155008">
        <ele>454.841</ele>
        <time>2014-12-20T15:13:49Z</time>
      </trkpt>
      <trkpt lat="61.2210443" lon="14.5155668">
        <ele>456.283</ele>
        <time>2014-12-20T15:13:53Z</time>
      </trkpt>
      <trkpt lat="61.2209246" lon="14.5155974">
        <ele>456.764</ele>
        <time>2014-12-20T15:13:57Z</time>
      </trkpt>
      <trkpt lat="61.2207863" lon="14.5156932">
        <ele>456.764</ele>
        <time>2014-12-20T15:14:02Z</time>
      </trkpt>
      <trkpt lat="61.2206562" lon="14.5158295">
        <ele>457.725</ele>
        <time>2014-12-20T15:14:07Z</time>
      </trkpt>
      <trkpt lat="61.2205585" lon="14.5159554">
        <ele>458.206</ele>
        <time>2014-12-20T15:14:11Z</time>
      </trkpt>
      <trkpt lat="61.2204137" lon="14.516166">
        <ele>458.686</ele>
        <time>2014-12-20T15:14:16Z</time>
      </trkpt>
      <trkpt lat="61.2202563" lon="14.5164847">
        <ele>458.206</ele>
        <time>2014-12-20T15:14:21Z</time>
      </trkpt>
      <trkpt lat="61.220201" lon="14.5166329">
        <ele>457.244</ele>
        <time>2014-12-20T15:14:23Z</time>
      </trkpt>
      <trkpt lat="61.2200622" lon="14.517115">
        <ele>455.802</ele>
        <time>2014-12-20T15:14:29Z</time>
      </trkpt>
      <trkpt lat="61.2200217" lon="14.5172432">
        <ele>455.322</ele>
        <time>2014-12-20T15:14:31Z</time>
      </trkpt>
      <trkpt lat="61.2199233" lon="14.517571">
        <ele>455.802</ele>
        <time>2014-12-20T15:14:36Z</time>
      </trkpt>
      <trkpt lat="61.2198692" lon="14.5176886">
        <ele>455.322</ele>
        <time>2014-12-20T15:14:38Z</time>
      </trkpt>
      <trkpt lat="61.2197777" lon="14.5179398">
        <ele>454.841</ele>
        <time>2014-12-20T15:14:43Z</time>
      </trkpt>
      <trkpt lat="61.2196886" lon="14.5181701">
        <ele>454.36</ele>
        <time>2014-12-20T15:14:47Z</time>
      </trkpt>
      <trkpt lat="61.2195959" lon="14.5184998">
        <ele>455.322</ele>
        <time>2014-12-20T15:14:52Z</time>
      </trkpt>
      <trkpt lat="61.2195109" lon="14.5187201">
        <ele>455.322</ele>
        <time>2014-12-20T15:14:56Z</time>
      </trkpt>
      <trkpt lat="61.2194361" lon="14.5188458">
        <ele>456.283</ele>
        <time>2014-12-20T15:14:59Z</time>
      </trkpt>
      <trkpt lat="61.2193545" lon="14.5190902">
        <ele>456.764</ele>
        <time>2014-12-20T15:15:03Z</time>
      </trkpt>
      <trkpt lat="61.2192468" lon="14.5194548">
        <ele>457.244</ele>
        <time>2014-12-20T15:15:08Z</time>
      </trkpt>
      <trkpt lat="61.2190968" lon="14.5198022">
        <ele>456.283</ele>
        <time>2014-12-20T15:15:13Z</time>
      </trkpt>
      <trkpt lat="61.2190353" lon="14.5199604">
        <ele>455.802</ele>
        <time>2014-12-20T15:15:15Z</time>
      </trkpt>
      <trkpt lat="61.218824" lon="14.5205264">
        <ele>455.322</ele>
        <time>2014-12-20T15:15:21Z</time>
      </trkpt>
      <trkpt lat="61.2187841" lon="14.5206243">
        <ele>454.841</ele>
        <time>2014-12-20T15:15:22Z</time>
      </trkpt>
      <trkpt lat="61.2185557" lon="14.5210882">
        <ele>454.841</ele>
        <time>2014-12-20T15:15:27Z</time>
      </trkpt>
      <trkpt lat="61.2184148" lon="14.521326">
        <ele>453.88</ele>
        <time>2014-12-20T15:15:31Z</time>
      </trkpt>
      <trkpt lat="61.2182908" lon="14.521573">
        <ele>453.399</ele>
        <time>2014-12-20T15:15:36Z</time>
      </trkpt>
      <trkpt lat="61.2181127" lon="14.5217835">
        <ele>452.438</ele>
        <time>2014-12-20T15:15:43Z</time>
      </trkpt>
      <trkpt lat="61.2179779" lon="14.5220006">
        <ele>451.957</ele>
        <time>2014-12-20T15:15:48Z</time>
      </trkpt>
      <trkpt lat="61.2178968" lon="14.5222379">
        <ele>451.957</ele>
        <time>2014-12-20T15:15:52Z</time>
      </trkpt>
      <trkpt lat="61.2178041" lon="14.5223507">
        <ele>451.476</ele>
        <time>2014-12-20T15:15:56Z</time>
      </trkpt>
      <trkpt lat="61.2177087" lon="14.522494">
        <ele>450.034</ele>
        <time>2014-12-20T15:16:01Z</time>
      </trkpt>
      <trkpt lat="61.2176404" lon="14.5226172">
        <ele>450.034</ele>
        <time>2014-12-20T15:16:04Z</time>
      </trkpt>
      <trkpt lat="61.2175727" lon="14.522776">
        <ele>449.554</ele>
        <time>2014-12-20T15:16:07Z</time>
      </trkpt>
      <trkpt lat="61.2174689" lon="14.5230035">
        <ele>450.515</ele>
        <time>2014-12-20T15:16:11Z</time>
      </trkpt>
      <trkpt lat="61.2173393" lon="14.5232453">
        <ele>451.957</ele>
        <time>2014-12-20T15:16:15Z</time>
      </trkpt>
      <trkpt lat="61.2172608" lon="14.5233917">
        <ele>452.438</ele>
        <time>2014-12-20T15:16:17Z</time>
      </trkpt>
      <trkpt lat="61.2171421" lon="14.5236457">
        <ele>452.438</ele>
        <time>2014-12-20T15:16:20Z</time>
      </trkpt>
      <trkpt lat="61.2169907" lon="14.5239863">
        <ele>451.476</ele>
        <time>2014-12-20T15:16:25Z</time>
      </trkpt>
      <trkpt lat="61.2168925" lon="14.5241827">
        <ele>451.957</ele>
        <time>2014-12-20T15:16:29Z</time>
      </trkpt>
      <trkpt lat="61.2167146" lon="14.5243839">
        <ele>451.957</ele>
        <time>2014-12-20T15:16:35Z</time>
      </trkpt>
      <trkpt lat="61.21645" lon="14.5246421">
        <ele>449.554</ele>
        <time>2014-12-20T15:16:41Z</time>
      </trkpt>
      <trkpt lat="61.2161439" lon="14.5248568">
        <ele>448.592</ele>
        <time>2014-12-20T15:16:46Z</time>
      </trkpt>
      <trkpt lat="61.2157648" lon="14.5251312">
        <ele>447.15</ele>
        <time>2014-12-20T15:16:52Z</time>
      </trkpt>
      <trkpt lat="61.2154625" lon="14.5253437">
        <ele>448.592</ele>
        <time>2014-12-20T15:16:58Z</time>
      </trkpt>
      <trkpt lat="61.2152938" lon="14.5254047">
        <ele>448.592</ele>
        <time>2014-12-20T15:17:02Z</time>
      </trkpt>
      <trkpt lat="61.2152232" lon="14.5254618">
        <ele>449.554</ele>
        <time>2014-12-20T15:17:04Z</time>
      </trkpt>
      <trkpt lat="61.2151384" lon="14.5255534">
        <ele>450.996</ele>
        <time>2014-12-20T15:17:07Z</time>
      </trkpt>
      <trkpt lat="61.2149483" lon="14.5256897">
        <ele>451.476</ele>
        <time>2014-12-20T15:17:13Z</time>
      </trkpt>
      <trkpt lat="61.2148235" lon="14.5257893">
        <ele>451.476</ele>
        <time>2014-12-20T15:17:17Z</time>
      </trkpt>
      <trkpt lat="61.2146857" lon="14.5258556">
        <ele>452.438</ele>
        <time>2014-12-20T15:17:21Z</time>
      </trkpt>
      <trkpt lat="61.2145452" lon="14.5259632">
        <ele>452.438</ele>
        <time>2014-12-20T15:17:25Z</time>
      </trkpt>
      <trkpt lat="61.2143916" lon="14.5260633">
        <ele>452.438</ele>
        <time>2014-12-20T15:17:29Z</time>
      </trkpt>
      <trkpt lat="61.2141875" lon="14.5262353">
        <ele>451.957</ele>
        <time>2014-12-20T15:17:34Z</time>
      </trkpt>
      <trkpt lat="61.214149" lon="14.5262699">
        <ele>451.957</ele>
        <time>2014-12-20T15:17:35Z</time>
      </trkpt>
      <trkpt lat="61.2139055" lon="14.5264313">
        <ele>451.957</ele>
        <time>2014-12-20T15:17:41Z</time>
      </trkpt>
      <trkpt lat="61.2138692" lon="14.5264704">
        <ele>451.957</ele>
        <time>2014-12-20T15:17:42Z</time>
      </trkpt>
      <trkpt lat="61.2137926" lon="14.5265563">
        <ele>451.957</ele>
        <time>2014-12-20T15:17:44Z</time>
      </trkpt>
      <trkpt lat="61.2135596" lon="14.5267885">
        <ele>450.515</ele>
        <time>2014-12-20T15:17:49Z</time>
      </trkpt>
      <trkpt lat="61.2134233" lon="14.5269313">
        <ele>450.515</ele>
        <time>2014-12-20T15:17:52Z</time>
      </trkpt>
      <trkpt lat="61.2132627" lon="14.5271018">
        <ele>449.073</ele>
        <time>2014-12-20T15:17:56Z</time>
      </trkpt>
      <trkpt lat="61.213156" lon="14.5272353">
        <ele>449.554</ele>
        <time>2014-12-20T15:18:00Z</time>
      </trkpt>
      <trkpt lat="61.2130286" lon="14.5273837">
        <ele>450.996</ele>
        <time>2014-12-20T15:18:05Z</time>
      </trkpt>
      <trkpt lat="61.2128947" lon="14.5274899">
        <ele>451.957</ele>
        <time>2014-12-20T15:18:09Z</time>
      </trkpt>
      <trkpt lat="61.2127923" lon="14.5276049">
        <ele>452.438</ele>
        <time>2014-12-20T15:18:13Z</time>
      </trkpt>
      <trkpt lat="61.2126737" lon="14.527695">
        <ele>453.399</ele>
        <time>2014-12-20T15:18:17Z</time>
      </trkpt>
      <trkpt lat="61.2125249" lon="14.5278984">
        <ele>454.841</ele>
        <time>2014-12-20T15:18:22Z</time>
      </trkpt>
      <trkpt lat="61.2124096" lon="14.5279999">
        <ele>455.322</ele>
        <time>2014-12-20T15:18:25Z</time>
      </trkpt>
      <trkpt lat="61.2122614" lon="14.5281209">
        <ele>455.802</ele>
        <time>2014-12-20T15:18:29Z</time>
      </trkpt>
      <trkpt lat="61.2121241" lon="14.5282761">
        <ele>454.841</ele>
        <time>2014-12-20T15:18:33Z</time>
      </trkpt>
      <trkpt lat="61.2120472" lon="14.5283711">
        <ele>454.36</ele>
        <time>2014-12-20T15:18:35Z</time>
      </trkpt>
      <trkpt lat="61.2119118" lon="14.5285308">
        <ele>453.88</ele>
        <time>2014-12-20T15:18:38Z</time>
      </trkpt>
      <trkpt lat="61.2116746" lon="14.5287766">
        <ele>451.957</ele>
        <time>2014-12-20T15:18:43Z</time>
      </trkpt>
      <trkpt lat="61.2115565" lon="14.5288671">
        <ele>450.034</ele>
        <time>2014-12-20T15:18:47Z</time>
      </trkpt>
      <trkpt lat="61.2115011" lon="14.5289081">
        <ele>449.554</ele>
        <time>2014-12-20T15:18:49Z</time>
      </trkpt>
      <trkpt lat="61.2114056" lon="14.5289973">
        <ele>449.073</ele>
        <time>2014-12-20T15:18:53Z</time>
      </trkpt>
      <trkpt lat="61.211242" lon="14.5291642">
        <ele>449.554</ele>
        <time>2014-12-20T15:19:00Z</time>
      </trkpt>
      <trkpt lat="61.2111174" lon="14.529293">
        <ele>449.073</ele>
        <time>2014-12-20T15:19:05Z</time>
      </trkpt>
      <trkpt lat="61.2110107" lon="14.5293881">
        <ele>450.515</ele>
        <time>2014-12-20T15:19:09Z</time>
      </trkpt>
      <trkpt lat="61.2108636" lon="14.5295508">
        <ele>451.476</ele>
        <time>2014-12-20T15:19:14Z</time>
      </trkpt>
      <trkpt lat="61.2106618" lon="14.52981">
        <ele>450.515</ele>
        <time>2014-12-20T15:19:20Z</time>
      </trkpt>
      <trkpt lat="61.2105267" lon="14.5300664">
        <ele>451.476</ele>
        <time>2014-12-20T15:19:24Z</time>
      </trkpt>
      <trkpt lat="61.2104815" lon="14.5303765">
        <ele>454.36</ele>
        <time>2014-12-20T15:19:28Z</time>
      </trkpt>
      <trkpt lat="61.2105324" lon="14.5305661">
        <ele>455.322</ele>
        <time>2014-12-20T15:19:32Z</time>
      </trkpt>
      <trkpt lat="61.2105494" lon="14.5306125">
        <ele>455.802</ele>
        <time>2014-12-20T15:19:33Z</time>
      </trkpt>
      <trkpt lat="61.2106225" lon="14.5308403">
        <ele>456.764</ele>
        <time>2014-12-20T15:19:37Z</time>
      </trkpt>
      <trkpt lat="61.2106307" lon="14.5310946">
        <ele>456.283</ele>
        <time>2014-12-20T15:19:41Z</time>
      </trkpt>
      <trkpt lat="61.2106467" lon="14.5313944">
        <ele>456.283</ele>
        <time>2014-12-20T15:19:45Z</time>
      </trkpt>
      <trkpt lat="61.210679" lon="14.5317267">
        <ele>455.802</ele>
        <time>2014-12-20T15:19:49Z</time>
      </trkpt>
      <trkpt lat="61.2107043" lon="14.5319963">
        <ele>455.322</ele>
        <time>2014-12-20T15:19:52Z</time>
      </trkpt>
      <trkpt lat="61.2107541" lon="14.5324379">
        <ele>454.36</ele>
        <time>2014-12-20T15:19:56Z</time>
      </trkpt>
      <trkpt lat="61.2107834" lon="14.5326482">
        <ele>454.36</ele>
        <time>2014-12-20T15:19:58Z</time>
      </trkpt>
      <trkpt lat="61.2108066" lon="14.5328459">
        <ele>453.88</ele>
        <time>2014-12-20T15:20:00Z</time>
      </trkpt>
      <trkpt lat="61.210856" lon="14.5334107">
        <ele>454.841</ele>
        <time>2014-12-20T15:20:06Z</time>
      </trkpt>
      <trkpt lat="61.2108771" lon="14.5335288">
        <ele>455.322</ele>
        <time>2014-12-20T15:20:08Z</time>
      </trkpt>
    </trkseg>
  </trk>
</gpx>